DAVE346 EDDH-OMDB
Flight info
| Callsign | DAVE346 |
|---|---|
| Flight time | 6h 52m |
| Altitude | 37000 |
| Route | AMLUH2G AMLUH M852 DENIX DCT ZUCKA DCT ARMUT DCT LAMSI DCT LIDSI DCT RADLY DCT PODET DCT TAZ DCT PETAK DCT DIMIS/N0465F390 DCT SALUN N705 MMA P751 DASUM Y234 FYM M872 BDB Y214 RAPMA DCT KUVSO DCT KATIT DCT PEKEM M628 RIGIL G783 ELUDA/N0477F350 G783 ASPED Q308 KIPOK Q568 IMPED |
| Aircraft | A346/H-SDE2E3FGHIJ3J4J5M1RWXY/LB1D1 |
Departure
| Time | 2026-04-26 13:03 |
|---|---|
| Airport | Hamburg Helmut Schmidt Airport (EDDH) |
Arrival
| Time | 2026-04-26 19:55 |
|---|---|
| Airport | Dubai International Airport (OMDB) |
| Time | Latitude | Longitude | Altitude | Speed | Heading |
|---|---|---|---|---|---|
| 2026-04-26 12:47 | 53.62705 | 9.99187 | 71 ft | 0 kts | 63° |
| 2026-04-26 12:50 | 53.62700 | 9.99170 | 71 ft | 2 kts | 66° |
| 2026-04-26 12:51 | 53.62696 | 9.99147 | 71 ft | 2 kts | 81° |
| 2026-04-26 12:51 | 53.62694 | 9.99122 | 71 ft | 2 kts | 93° |
| 2026-04-26 12:51 | 53.62696 | 9.99097 | 71 ft | 2 kts | 104° |
| 2026-04-26 12:51 | 53.62701 | 9.99074 | 71 ft | 2 kts | 116° |
| 2026-04-26 12:52 | 53.62709 | 9.99052 | 71 ft | 2 kts | 128° |
| 2026-04-26 12:52 | 53.62719 | 9.99034 | 71 ft | 2 kts | 139° |
| 2026-04-26 12:52 | 53.62730 | 9.99020 | 71 ft | 1 kts | 150° |
| 2026-04-26 12:52 | 53.62735 | 9.99016 | 71 ft | 0 kts | 153° |
| 2026-04-26 12:55 | 53.62720 | 9.99029 | 71 ft | 4 kts | 153° |
| 2026-04-26 12:56 | 53.62681 | 9.99061 | 71 ft | 8 kts | 153° |
| 2026-04-26 12:56 | 53.62625 | 9.99108 | 71 ft | 8 kts | 154° |
| 2026-04-26 12:56 | 53.62584 | 9.99167 | 71 ft | 9 kts | 110° |
| 2026-04-26 12:56 | 53.62586 | 9.99291 | 71 ft | 12 kts | 81° |
| 2026-04-26 12:57 | 53.62602 | 9.99443 | 71 ft | 14 kts | 79° |
| 2026-04-26 12:57 | 53.62622 | 9.99621 | 71 ft | 16 kts | 78° |
| 2026-04-26 12:57 | 53.62642 | 9.99762 | 71 ft | 7 kts | 75° |
| 2026-04-26 12:58 | 53.62739 | 9.99852 | 71 ft | 6 kts | 337° |
| 2026-04-26 12:58 | 53.62742 | 9.99850 | 71 ft | 0 kts | 337° |
| 2026-04-26 12:59 | 53.62744 | 9.99848 | 71 ft | 1 kts | 337° |
| 2026-04-26 12:59 | 53.62750 | 9.99844 | 71 ft | 0 kts | 335° |
| 2026-04-26 12:59 | 53.62763 | 9.99834 | 71 ft | 3 kts | 334° |
| 2026-04-26 13:00 | 53.62767 | 9.99831 | 71 ft | 0 kts | 334° |
| 2026-04-26 13:02 | 53.62768 | 9.99830 | 71 ft | 0 kts | 334° |
| 2026-04-26 13:02 | 53.62931 | 9.99691 | 71 ft | 68 kts | 333° |
| 2026-04-26 13:02 | 53.63603 | 9.99110 | 71 ft | 145 kts | 334° |
| 2026-04-26 13:02 | 53.64643 | 9.98292 | 472 ft | 170 kts | 336° |
| 2026-04-26 13:03 | 53.65686 | 9.97417 | 1236 ft | 170 kts | 332° |
| 2026-04-26 13:03 | 53.66721 | 9.96496 | 1953 ft | 171 kts | 331° |
| 2026-04-26 13:03 | 53.67806 | 9.95529 | 2369 ft | 184 kts | 331° |
| 2026-04-26 13:03 | 53.69046 | 9.94764 | 2721 ft | 201 kts | 349° |
| 2026-04-26 13:04 | 53.70481 | 9.94611 | 3157 ft | 215 kts | 359° |
| 2026-04-26 13:04 | 53.71987 | 9.94732 | 3817 ft | 220 kts | 12° |
| 2026-04-26 13:04 | 53.73279 | 9.96053 | 4474 ft | 224 kts | 49° |
| 2026-04-26 13:04 | 53.73947 | 9.98470 | 4877 ft | 239 kts | 80° |
| 2026-04-26 13:05 | 53.74166 | 10.01309 | 4976 ft | 245 kts | 83° |
| 2026-04-26 13:05 | 53.74035 | 10.04132 | 4962 ft | 247 kts | 109° |
| 2026-04-26 13:05 | 53.73212 | 10.06850 | 4983 ft | 265 kts | 120° |
| 2026-04-26 13:05 | 53.72277 | 10.09518 | 4970 ft | 269 kts | 120° |
| 2026-04-26 13:06 | 53.71321 | 10.12269 | 4999 ft | 273 kts | 120° |
| 2026-04-26 13:06 | 53.70369 | 10.15060 | 5553 ft | 281 kts | 119° |
| 2026-04-26 13:06 | 53.69411 | 10.17893 | 6616 ft | 277 kts | 120° |
| 2026-04-26 13:06 | 53.68197 | 10.20318 | 7424 ft | 281 kts | 145° |
| 2026-04-26 13:07 | 53.66402 | 10.21665 | 8175 ft | 285 kts | 166° |
| 2026-04-26 13:07 | 53.64479 | 10.22502 | 8834 ft | 294 kts | 167° |
| 2026-04-26 13:07 | 53.62467 | 10.23358 | 9509 ft | 302 kts | 167° |
| 2026-04-26 13:07 | 53.60438 | 10.24241 | 10218 ft | 308 kts | 166° |
| 2026-04-26 13:08 | 53.58368 | 10.25165 | 10849 ft | 317 kts | 166° |
| 2026-04-26 13:08 | 53.56163 | 10.26161 | 11237 ft | 334 kts | 166° |
| 2026-04-26 13:08 | 53.53874 | 10.27203 | 11585 ft | 352 kts | 166° |
| 2026-04-26 13:08 | 53.51449 | 10.28311 | 11897 ft | 371 kts | 166° |
| 2026-04-26 13:09 | 53.48921 | 10.29466 | 12215 ft | 389 kts | 166° |
| 2026-04-26 13:09 | 53.46267 | 10.30677 | 12620 ft | 403 kts | 166° |
| 2026-04-26 13:09 | 53.43559 | 10.31913 | 13346 ft | 407 kts | 166° |
| 2026-04-26 13:09 | 53.40813 | 10.33159 | 14108 ft | 411 kts | 166° |
| 2026-04-26 13:10 | 53.38063 | 10.34397 | 14816 ft | 416 kts | 167° |
| 2026-04-26 13:10 | 53.35251 | 10.35661 | 15517 ft | 419 kts | 167° |
| 2026-04-26 13:10 | 53.32441 | 10.36922 | 16216 ft | 423 kts | 167° |
| 2026-04-26 13:10 | 53.29601 | 10.38195 | 16910 ft | 426 kts | 167° |
| 2026-04-26 13:11 | 53.26732 | 10.39480 | 17603 ft | 429 kts | 167° |
| 2026-04-26 13:11 | 53.23853 | 10.40768 | 18246 ft | 432 kts | 167° |
| 2026-04-26 13:11 | 53.20921 | 10.42078 | 18922 ft | 435 kts | 167° |
| 2026-04-26 13:11 | 53.17984 | 10.43387 | 19569 ft | 438 kts | 167° |
| 2026-04-26 13:12 | 53.15032 | 10.44702 | 20201 ft | 442 kts | 167° |
| 2026-04-26 13:12 | 53.12055 | 10.45902 | 20782 ft | 444 kts | 171° |
| 2026-04-26 13:12 | 53.08979 | 10.46877 | 21409 ft | 447 kts | 172° |
| 2026-04-26 13:12 | 53.05915 | 10.47826 | 22020 ft | 450 kts | 172° |
| 2026-04-26 13:13 | 53.02853 | 10.48775 | 22588 ft | 453 kts | 172° |
| 2026-04-26 13:13 | 52.99723 | 10.49744 | 23170 ft | 456 kts | 172° |
| 2026-04-26 13:13 | 52.96595 | 10.50713 | 23762 ft | 458 kts | 172° |
| 2026-04-26 13:13 | 52.93413 | 10.51698 | 24318 ft | 461 kts | 172° |
| 2026-04-26 13:14 | 52.90224 | 10.52684 | 24862 ft | 464 kts | 172° |
| 2026-04-26 13:14 | 52.87045 | 10.53666 | 25290 ft | 469 kts | 172° |
| 2026-04-26 13:14 | 52.83795 | 10.54667 | 25734 ft | 474 kts | 172° |
| 2026-04-26 13:14 | 52.80517 | 10.55677 | 26213 ft | 477 kts | 172° |
| 2026-04-26 13:15 | 52.77254 | 10.56681 | 26697 ft | 480 kts | 172° |
| 2026-04-26 13:15 | 52.73946 | 10.57696 | 27188 ft | 482 kts | 172° |
| 2026-04-26 13:15 | 52.70631 | 10.58713 | 27648 ft | 485 kts | 172° |
| 2026-04-26 13:15 | 52.67308 | 10.59730 | 28091 ft | 488 kts | 172° |
| 2026-04-26 13:16 | 52.63962 | 10.60755 | 28663 ft | 488 kts | 172° |
| 2026-04-26 13:16 | 52.60649 | 10.61768 | 29354 ft | 485 kts | 172° |
| 2026-04-26 13:16 | 52.57335 | 10.62782 | 30035 ft | 482 kts | 173° |
| 2026-04-26 13:16 | 52.54008 | 10.63796 | 30668 ft | 479 kts | 173° |
| 2026-04-26 13:17 | 52.47460 | 10.65782 | 31811 ft | 476 kts | 173° |
| 2026-04-26 13:17 | 52.44262 | 10.66749 | 32357 ft | 475 kts | 173° |
| 2026-04-26 13:18 | 52.37813 | 10.68699 | 33399 ft | 472 kts | 173° |
| 2026-04-26 13:18 | 52.34560 | 10.69680 | 33910 ft | 470 kts | 173° |
| 2026-04-26 13:18 | 52.28177 | 10.71602 | 34857 ft | 467 kts | 173° |
| 2026-04-26 13:19 | 52.24957 | 10.72568 | 35270 ft | 466 kts | 173° |
| 2026-04-26 13:19 | 52.21742 | 10.73533 | 35630 ft | 465 kts | 173° |
| 2026-04-26 13:19 | 52.18559 | 10.74485 | 35917 ft | 466 kts | 173° |
| 2026-04-26 13:19 | 52.15316 | 10.75454 | 36165 ft | 467 kts | 173° |
| 2026-04-26 13:20 | 52.12112 | 10.76408 | 36409 ft | 469 kts | 173° |
| 2026-04-26 13:20 | 52.08877 | 10.77371 | 36646 ft | 470 kts | 173° |
| 2026-04-26 13:20 | 52.05660 | 10.78330 | 36907 ft | 471 kts | 173° |
| 2026-04-26 13:20 | 52.02445 | 10.79285 | 37178 ft | 472 kts | 173° |
| 2026-04-26 13:21 | 51.99185 | 10.80253 | 37298 ft | 474 kts | 173° |
| 2026-04-26 13:21 | 51.92664 | 10.82188 | 37296 ft | 475 kts | 173° |
| 2026-04-26 13:22 | 51.86144 | 10.84118 | 37296 ft | 474 kts | 173° |
| 2026-04-26 13:22 | 51.79680 | 10.86025 | 37294 ft | 474 kts | 173° |
| 2026-04-26 13:23 | 51.73221 | 10.87977 | 37285 ft | 474 kts | 171° |
| 2026-04-26 13:23 | 51.66833 | 10.90771 | 37290 ft | 476 kts | 164° |
| 2026-04-26 13:24 | 51.60677 | 10.94670 | 37290 ft | 478 kts | 158° |
| 2026-04-26 13:24 | 51.54705 | 10.99250 | 37297 ft | 478 kts | 157° |
| 2026-04-26 13:25 | 51.48676 | 11.03841 | 37297 ft | 478 kts | 157° |
| 2026-04-26 13:25 | 51.42677 | 11.08387 | 37298 ft | 478 kts | 157° |
| 2026-04-26 13:26 | 51.36628 | 11.12959 | 37301 ft | 478 kts | 157° |
| 2026-04-26 13:26 | 51.30573 | 11.17522 | 37301 ft | 478 kts | 157° |
| 2026-04-26 13:27 | 51.24512 | 11.22074 | 37295 ft | 478 kts | 157° |
| 2026-04-26 13:27 | 51.18469 | 11.26599 | 37294 ft | 477 kts | 157° |
| 2026-04-26 13:28 | 51.12443 | 11.31099 | 37299 ft | 477 kts | 157° |
| 2026-04-26 13:28 | 51.06393 | 11.35607 | 37297 ft | 477 kts | 157° |
| 2026-04-26 13:29 | 51.00374 | 11.40076 | 37298 ft | 477 kts | 157° |
| 2026-04-26 13:29 | 50.94344 | 11.44543 | 37298 ft | 477 kts | 157° |
| 2026-04-26 13:30 | 50.88294 | 11.49010 | 37293 ft | 477 kts | 157° |
| 2026-04-26 13:30 | 50.82282 | 11.53436 | 37290 ft | 477 kts | 157° |
| 2026-04-26 13:31 | 50.76265 | 11.57853 | 37281 ft | 477 kts | 157° |
| 2026-04-26 13:31 | 50.70226 | 11.62271 | 37281 ft | 477 kts | 157° |
| 2026-04-26 13:32 | 50.64211 | 11.66662 | 37282 ft | 477 kts | 158° |
| 2026-04-26 13:32 | 50.58191 | 11.71045 | 37273 ft | 477 kts | 158° |
| 2026-04-26 13:33 | 50.52191 | 11.75399 | 37274 ft | 477 kts | 158° |
| 2026-04-26 13:33 | 50.46142 | 11.79778 | 37266 ft | 477 kts | 158° |
| 2026-04-26 13:34 | 50.40036 | 11.84184 | 37270 ft | 477 kts | 158° |
| 2026-04-26 13:34 | 50.34003 | 11.88524 | 37278 ft | 477 kts | 158° |
| 2026-04-26 13:35 | 50.27919 | 11.92892 | 37283 ft | 477 kts | 158° |
| 2026-04-26 13:35 | 50.21889 | 11.97209 | 37268 ft | 477 kts | 158° |
| 2026-04-26 13:36 | 50.15852 | 12.01516 | 37252 ft | 477 kts | 158° |
| 2026-04-26 13:36 | 50.09786 | 12.05834 | 37236 ft | 477 kts | 158° |
| 2026-04-26 13:37 | 50.03724 | 12.10138 | 37237 ft | 478 kts | 158° |
| 2026-04-26 13:37 | 49.97675 | 12.14421 | 37239 ft | 477 kts | 158° |
| 2026-04-26 13:38 | 49.91633 | 12.18687 | 37241 ft | 477 kts | 158° |
| 2026-04-26 13:38 | 49.85601 | 12.22938 | 37236 ft | 477 kts | 158° |
| 2026-04-26 13:39 | 49.79501 | 12.27222 | 37240 ft | 477 kts | 158° |
| 2026-04-26 13:39 | 49.73572 | 12.31840 | 37235 ft | 480 kts | 153° |
| 2026-04-26 13:40 | 49.67986 | 12.37417 | 37236 ft | 482 kts | 146° |
| 2026-04-26 13:40 | 49.62704 | 12.43753 | 37237 ft | 483 kts | 144° |
| 2026-04-26 13:41 | 49.57430 | 12.50127 | 37231 ft | 483 kts | 144° |
| 2026-04-26 13:41 | 49.52173 | 12.56448 | 37230 ft | 483 kts | 144° |
| 2026-04-26 13:42 | 49.46867 | 12.62804 | 37230 ft | 483 kts | 144° |
| 2026-04-26 13:42 | 49.41586 | 12.69112 | 37236 ft | 483 kts | 145° |
| 2026-04-26 13:43 | 49.36279 | 12.75432 | 37238 ft | 483 kts | 145° |
| 2026-04-26 13:43 | 49.31014 | 12.81685 | 37232 ft | 483 kts | 145° |
| 2026-04-26 13:44 | 49.25719 | 12.87958 | 37228 ft | 483 kts | 145° |
| 2026-04-26 13:44 | 49.20397 | 12.94241 | 37228 ft | 483 kts | 144° |
| 2026-04-26 13:45 | 49.15091 | 13.00491 | 37220 ft | 483 kts | 144° |
| 2026-04-26 13:45 | 49.09807 | 13.06699 | 37218 ft | 484 kts | 144° |
| 2026-04-26 13:46 | 49.04464 | 13.12957 | 37220 ft | 484 kts | 144° |
| 2026-04-26 13:46 | 48.99145 | 13.19172 | 37226 ft | 484 kts | 144° |
| 2026-04-26 13:47 | 48.93816 | 13.25381 | 37228 ft | 484 kts | 144° |
| 2026-04-26 13:47 | 48.88496 | 13.31563 | 37226 ft | 484 kts | 144° |
| 2026-04-26 13:48 | 48.83150 | 13.37759 | 37225 ft | 484 kts | 144° |
| 2026-04-26 13:48 | 48.77835 | 13.43903 | 37214 ft | 484 kts | 144° |
| 2026-04-26 13:49 | 48.72502 | 13.50053 | 37216 ft | 484 kts | 144° |
| 2026-04-26 13:49 | 48.67104 | 13.56055 | 37212 ft | 483 kts | 148° |
| 2026-04-26 13:50 | 48.61327 | 13.61221 | 37213 ft | 480 kts | 155° |
| 2026-04-26 13:50 | 48.55333 | 13.65622 | 37210 ft | 480 kts | 157° |
| 2026-04-26 13:51 | 48.49365 | 13.69985 | 37212 ft | 480 kts | 157° |
| 2026-04-26 13:51 | 48.43349 | 13.74379 | 37211 ft | 480 kts | 157° |
| 2026-04-26 13:52 | 48.37374 | 13.78737 | 37211 ft | 481 kts | 157° |
| 2026-04-26 13:52 | 48.31380 | 13.83098 | 37205 ft | 481 kts | 157° |
| 2026-04-26 13:53 | 48.25340 | 13.87479 | 37204 ft | 481 kts | 157° |
| 2026-04-26 13:53 | 48.19448 | 13.92116 | 37208 ft | 482 kts | 153° |
| 2026-04-26 13:54 | 48.13643 | 13.97102 | 37205 ft | 482 kts | 152° |
| 2026-04-26 13:54 | 48.07853 | 14.02062 | 37199 ft | 482 kts | 152° |
| 2026-04-26 13:55 | 48.00083 | 14.08701 | 37200 ft | 482 kts | 152° |
| 2026-04-26 13:56 | 47.90422 | 14.16926 | 37197 ft | 483 kts | 152° |
| 2026-04-26 13:56 | 47.84585 | 14.21880 | 37194 ft | 483 kts | 152° |
| 2026-04-26 13:57 | 47.78768 | 14.26805 | 37189 ft | 482 kts | 152° |
| 2026-04-26 13:57 | 47.72964 | 14.31704 | 37191 ft | 482 kts | 152° |
| 2026-04-26 13:58 | 47.67152 | 14.36597 | 37198 ft | 482 kts | 152° |
| 2026-04-26 13:58 | 47.61331 | 14.41486 | 37199 ft | 482 kts | 152° |
| 2026-04-26 13:59 | 47.55510 | 14.46363 | 37197 ft | 482 kts | 152° |
| 2026-04-26 13:59 | 47.49693 | 14.51221 | 37195 ft | 482 kts | 152° |
| 2026-04-26 14:00 | 47.38033 | 14.60927 | 37184 ft | 481 kts | 152° |
| 2026-04-26 14:00 | 47.36089 | 14.62541 | 37520 ft | 482 kts | 152° |
| 2026-04-26 14:01 | 47.32237 | 14.65734 | 37275 ft | 479 kts | 153° |
| 2026-04-26 14:01 | 47.26423 | 14.70543 | 37212 ft | 479 kts | 153° |
| 2026-04-26 14:02 | 47.20660 | 14.75296 | 37206 ft | 479 kts | 153° |
| 2026-04-26 14:02 | 47.14845 | 14.80082 | 37197 ft | 479 kts | 153° |
| 2026-04-26 14:03 | 47.09061 | 14.84829 | 37191 ft | 479 kts | 153° |
| 2026-04-26 14:03 | 47.03249 | 14.89587 | 37187 ft | 478 kts | 153° |
| 2026-04-26 14:04 | 46.97469 | 14.94308 | 37176 ft | 478 kts | 153° |
| 2026-04-26 14:04 | 46.91688 | 14.99018 | 37176 ft | 478 kts | 153° |
| 2026-04-26 14:05 | 46.85889 | 15.03734 | 37176 ft | 478 kts | 153° |
| 2026-04-26 14:05 | 46.80068 | 15.08455 | 37175 ft | 479 kts | 153° |
| 2026-04-26 14:06 | 46.74269 | 15.13148 | 37177 ft | 479 kts | 153° |
| 2026-04-26 14:06 | 46.68450 | 15.17846 | 37173 ft | 480 kts | 153° |
| 2026-04-26 14:07 | 46.62635 | 15.22687 | 37172 ft | 481 kts | 150° |
| 2026-04-26 14:07 | 46.56961 | 15.27704 | 37172 ft | 481 kts | 150° |
| 2026-04-26 14:08 | 46.51248 | 15.32748 | 37177 ft | 481 kts | 150° |
| 2026-04-26 14:08 | 46.45558 | 15.37759 | 37178 ft | 481 kts | 150° |
| 2026-04-26 14:09 | 46.39851 | 15.42778 | 37181 ft | 481 kts | 150° |
| 2026-04-26 14:09 | 46.34110 | 15.47814 | 37172 ft | 481 kts | 150° |
| 2026-04-26 14:10 | 46.28408 | 15.52806 | 37171 ft | 482 kts | 150° |
| 2026-04-26 14:10 | 46.22684 | 15.57807 | 37162 ft | 482 kts | 150° |
| 2026-04-26 14:11 | 46.14064 | 15.65326 | 37159 ft | 482 kts | 150° |
| 2026-04-26 14:11 | 46.08362 | 15.70337 | 37156 ft | 482 kts | 150° |
| 2026-04-26 14:12 | 46.02666 | 15.75338 | 37157 ft | 482 kts | 150° |
| 2026-04-26 14:12 | 45.96965 | 15.80333 | 37158 ft | 482 kts | 150° |
| 2026-04-26 14:13 | 45.88401 | 15.87814 | 37160 ft | 482 kts | 150° |
| 2026-04-26 14:14 | 45.82666 | 15.92807 | 37157 ft | 482 kts | 150° |
| 2026-04-26 14:14 | 45.76940 | 15.97782 | 37158 ft | 483 kts | 150° |
| 2026-04-26 14:15 | 45.71099 | 16.02842 | 37156 ft | 482 kts | 150° |
| 2026-04-26 14:15 | 45.65393 | 16.07773 | 37159 ft | 482 kts | 150° |
| 2026-04-26 14:16 | 45.59604 | 16.12766 | 37154 ft | 482 kts | 150° |
| 2026-04-26 14:16 | 45.53873 | 16.17695 | 37158 ft | 482 kts | 150° |
| 2026-04-26 14:17 | 45.48034 | 16.22706 | 37160 ft | 483 kts | 150° |
| 2026-04-26 14:17 | 45.42228 | 16.27676 | 37160 ft | 483 kts | 150° |
| 2026-04-26 14:18 | 45.36402 | 16.32652 | 37165 ft | 483 kts | 150° |
| 2026-04-26 14:18 | 45.30581 | 16.37611 | 37161 ft | 482 kts | 150° |
| 2026-04-26 14:19 | 45.24781 | 16.42539 | 37163 ft | 482 kts | 150° |
| 2026-04-26 14:19 | 45.18938 | 16.47492 | 37163 ft | 482 kts | 149° |
| 2026-04-26 14:20 | 45.13056 | 16.52467 | 37162 ft | 482 kts | 149° |
| 2026-04-26 14:20 | 45.07230 | 16.57381 | 37161 ft | 482 kts | 149° |
| 2026-04-26 14:21 | 45.01454 | 16.62244 | 37166 ft | 482 kts | 149° |
| 2026-04-26 14:21 | 44.95717 | 16.67062 | 37163 ft | 482 kts | 150° |
| 2026-04-26 14:22 | 44.89957 | 16.71886 | 37163 ft | 482 kts | 150° |
| 2026-04-26 14:22 | 44.84178 | 16.76716 | 37159 ft | 482 kts | 150° |
| 2026-04-26 14:23 | 44.78411 | 16.81524 | 37162 ft | 481 kts | 150° |
| 2026-04-26 14:23 | 44.72694 | 16.86278 | 37163 ft | 481 kts | 150° |
| 2026-04-26 14:24 | 44.66919 | 16.91071 | 37168 ft | 481 kts | 150° |
| 2026-04-26 14:24 | 44.61189 | 16.95816 | 37174 ft | 481 kts | 150° |
| 2026-04-26 14:25 | 44.55410 | 17.00590 | 37180 ft | 481 kts | 150° |
| 2026-04-26 14:25 | 44.49657 | 17.05331 | 37181 ft | 480 kts | 150° |
| 2026-04-26 14:26 | 44.43938 | 17.10033 | 37188 ft | 480 kts | 150° |
| 2026-04-26 14:26 | 44.38157 | 17.14774 | 37189 ft | 481 kts | 150° |
| 2026-04-26 14:27 | 44.32431 | 17.19460 | 37193 ft | 481 kts | 150° |
| 2026-04-26 14:27 | 44.26638 | 17.24189 | 37194 ft | 480 kts | 150° |
| 2026-04-26 14:28 | 44.20865 | 17.28893 | 37195 ft | 480 kts | 150° |
| 2026-04-26 14:28 | 44.15139 | 17.33549 | 37192 ft | 479 kts | 150° |
| 2026-04-26 14:29 | 44.09360 | 17.38235 | 37187 ft | 480 kts | 150° |
| 2026-04-26 14:29 | 44.03561 | 17.42927 | 37185 ft | 480 kts | 150° |
| 2026-04-26 14:30 | 43.97724 | 17.47638 | 37175 ft | 480 kts | 150° |
| 2026-04-26 14:30 | 43.91900 | 17.52329 | 37174 ft | 481 kts | 150° |
| 2026-04-26 14:31 | 43.86090 | 17.56997 | 37168 ft | 480 kts | 150° |
| 2026-04-26 14:31 | 43.80328 | 17.61617 | 37177 ft | 480 kts | 150° |
| 2026-04-26 14:32 | 43.74523 | 17.66261 | 37171 ft | 480 kts | 151° |
| 2026-04-26 14:32 | 43.68763 | 17.70858 | 37157 ft | 480 kts | 151° |
| 2026-04-26 14:33 | 43.63010 | 17.75440 | 37149 ft | 481 kts | 151° |
| 2026-04-26 14:33 | 43.57178 | 17.80073 | 37140 ft | 481 kts | 151° |
| 2026-04-26 14:34 | 43.51391 | 17.84662 | 37150 ft | 481 kts | 151° |
| 2026-04-26 14:34 | 43.45633 | 17.89217 | 37149 ft | 480 kts | 151° |
| 2026-04-26 14:35 | 43.39834 | 17.93793 | 37154 ft | 480 kts | 151° |
| 2026-04-26 14:35 | 43.34080 | 17.98324 | 37154 ft | 481 kts | 151° |
| 2026-04-26 14:36 | 43.28239 | 18.02913 | 37146 ft | 481 kts | 151° |
| 2026-04-26 14:36 | 43.22396 | 18.07493 | 37140 ft | 481 kts | 151° |
| 2026-04-26 14:37 | 43.16614 | 18.12018 | 37133 ft | 481 kts | 151° |
| 2026-04-26 14:37 | 43.10662 | 18.16666 | 37135 ft | 480 kts | 151° |
| 2026-04-26 14:38 | 43.04715 | 18.21296 | 37135 ft | 481 kts | 151° |
| 2026-04-26 14:38 | 42.98864 | 18.25842 | 37137 ft | 481 kts | 151° |
| 2026-04-26 14:39 | 42.92986 | 18.30400 | 37141 ft | 481 kts | 151° |
| 2026-04-26 14:39 | 42.87170 | 18.34900 | 37134 ft | 482 kts | 152° |
| 2026-04-26 14:40 | 42.81344 | 18.39397 | 37130 ft | 481 kts | 152° |
| 2026-04-26 14:40 | 42.75442 | 18.43944 | 37125 ft | 481 kts | 152° |
| 2026-04-26 14:41 | 42.69549 | 18.48475 | 37112 ft | 481 kts | 152° |
| 2026-04-26 14:41 | 42.63604 | 18.53034 | 37107 ft | 481 kts | 152° |
| 2026-04-26 14:42 | 42.57773 | 18.57497 | 37102 ft | 481 kts | 152° |
| 2026-04-26 14:42 | 42.51892 | 18.61988 | 37098 ft | 482 kts | 152° |
| 2026-04-26 14:43 | 42.46014 | 18.66472 | 37094 ft | 481 kts | 152° |
| 2026-04-26 14:43 | 42.40190 | 18.70905 | 37090 ft | 481 kts | 153° |
| 2026-04-26 14:44 | 42.34363 | 18.75329 | 37085 ft | 481 kts | 153° |
| 2026-04-26 14:44 | 42.28595 | 18.79863 | 37077 ft | 482 kts | 149° |
| 2026-04-26 14:45 | 42.23145 | 18.85101 | 37074 ft | 483 kts | 144° |
| 2026-04-26 14:45 | 42.17811 | 18.90562 | 37069 ft | 483 kts | 144° |
| 2026-04-26 14:46 | 42.12442 | 18.96042 | 37066 ft | 483 kts | 144° |
| 2026-04-26 14:46 | 42.07065 | 19.01511 | 37062 ft | 483 kts | 144° |
| 2026-04-26 14:47 | 42.01712 | 19.06942 | 37060 ft | 484 kts | 144° |
| 2026-04-26 14:47 | 41.96346 | 19.12374 | 37064 ft | 483 kts | 144° |
| 2026-04-26 14:48 | 41.90990 | 19.17788 | 37066 ft | 483 kts | 144° |
| 2026-04-26 14:48 | 41.85628 | 19.23199 | 37063 ft | 484 kts | 144° |
| 2026-04-26 14:49 | 41.80248 | 19.28610 | 37065 ft | 483 kts | 145° |
| 2026-04-26 14:49 | 41.74692 | 19.33548 | 37063 ft | 481 kts | 152° |
| 2026-04-26 14:50 | 41.68899 | 19.38009 | 37061 ft | 481 kts | 152° |
| 2026-04-26 14:50 | 41.63095 | 19.42477 | 37063 ft | 481 kts | 152° |
| 2026-04-26 14:51 | 41.57304 | 19.46934 | 37066 ft | 480 kts | 152° |
| 2026-04-26 14:51 | 41.51535 | 19.51368 | 37065 ft | 481 kts | 152° |
| 2026-04-26 14:52 | 41.45741 | 19.55815 | 37066 ft | 481 kts | 152° |
| 2026-04-26 14:52 | 41.39904 | 19.60283 | 37071 ft | 481 kts | 152° |
| 2026-04-26 14:53 | 41.34029 | 19.64771 | 37072 ft | 480 kts | 152° |
| 2026-04-26 14:53 | 41.28175 | 19.69233 | 37132 ft | 483 kts | 153° |
| 2026-04-26 14:53 | 41.25277 | 19.71439 | 37427 ft | 484 kts | 153° |
| 2026-04-26 14:54 | 41.22332 | 19.73678 | 37828 ft | 481 kts | 153° |
| 2026-04-26 14:54 | 41.19459 | 19.75862 | 38185 ft | 480 kts | 153° |
| 2026-04-26 14:54 | 41.16501 | 19.78107 | 38491 ft | 479 kts | 153° |
| 2026-04-26 14:54 | 41.13528 | 19.80360 | 38770 ft | 479 kts | 153° |
| 2026-04-26 14:55 | 41.10623 | 19.82560 | 39018 ft | 479 kts | 153° |
| 2026-04-26 14:55 | 41.04709 | 19.87031 | 39077 ft | 479 kts | 153° |
| 2026-04-26 14:56 | 40.98824 | 19.91472 | 39072 ft | 479 kts | 153° |
| 2026-04-26 14:56 | 40.92931 | 19.95909 | 39070 ft | 478 kts | 153° |
| 2026-04-26 14:57 | 40.87066 | 20.00316 | 39072 ft | 478 kts | 153° |
| 2026-04-26 14:57 | 40.81263 | 20.04668 | 39078 ft | 478 kts | 153° |
| 2026-04-26 14:58 | 40.75486 | 20.08991 | 39081 ft | 479 kts | 153° |
| 2026-04-26 14:58 | 40.69604 | 20.13384 | 39083 ft | 479 kts | 153° |
| 2026-04-26 14:59 | 40.63767 | 20.17734 | 39087 ft | 478 kts | 153° |
| 2026-04-26 14:59 | 40.57866 | 20.22124 | 39091 ft | 479 kts | 153° |
| 2026-04-26 15:00 | 40.51934 | 20.26528 | 39096 ft | 478 kts | 153° |
| 2026-04-26 15:00 | 40.46012 | 20.30915 | 39107 ft | 478 kts | 153° |
| 2026-04-26 15:01 | 40.40035 | 20.35335 | 39112 ft | 479 kts | 153° |
| 2026-04-26 15:01 | 40.34040 | 20.39760 | 39119 ft | 479 kts | 153° |
| 2026-04-26 15:02 | 40.28078 | 20.44150 | 39118 ft | 479 kts | 153° |
| 2026-04-26 15:02 | 40.22063 | 20.48572 | 39118 ft | 479 kts | 153° |
| 2026-04-26 15:03 | 40.16028 | 20.53002 | 39119 ft | 479 kts | 153° |
| 2026-04-26 15:03 | 40.09947 | 20.57457 | 39126 ft | 479 kts | 153° |
| 2026-04-26 15:04 | 40.03793 | 20.61872 | 39146 ft | 479 kts | 154° |
| 2026-04-26 15:04 | 39.97694 | 20.66080 | 39156 ft | 479 kts | 155° |
| 2026-04-26 15:05 | 39.91651 | 20.70249 | 39155 ft | 479 kts | 155° |
| 2026-04-26 15:05 | 39.85684 | 20.74370 | 39145 ft | 479 kts | 154° |
| 2026-04-26 15:06 | 39.79722 | 20.78486 | 39124 ft | 479 kts | 154° |
| 2026-04-26 15:06 | 39.73669 | 20.82659 | 39104 ft | 479 kts | 154° |
| 2026-04-26 15:07 | 39.64526 | 20.88946 | 39104 ft | 479 kts | 155° |
| 2026-04-26 15:07 | 39.58448 | 20.93116 | 39100 ft | 479 kts | 154° |
| 2026-04-26 15:08 | 39.52410 | 20.97249 | 39095 ft | 480 kts | 154° |
| 2026-04-26 15:08 | 39.46305 | 21.01420 | 39077 ft | 480 kts | 154° |
| 2026-04-26 15:09 | 39.40184 | 21.05595 | 39089 ft | 480 kts | 154° |
| 2026-04-26 15:09 | 39.34072 | 21.09753 | 39094 ft | 480 kts | 154° |
| 2026-04-26 15:10 | 39.28950 | 21.13232 | 39092 ft | 480 kts | 154° |
| 2026-04-26 15:10 | 39.21870 | 21.18034 | 39101 ft | 480 kts | 154° |
| 2026-04-26 15:11 | 39.15833 | 21.22119 | 39102 ft | 480 kts | 154° |
| 2026-04-26 15:11 | 39.09749 | 21.26227 | 39098 ft | 481 kts | 154° |
| 2026-04-26 15:12 | 39.03604 | 21.30367 | 39085 ft | 481 kts | 154° |
| 2026-04-26 15:12 | 38.97515 | 21.34461 | 39073 ft | 480 kts | 154° |
| 2026-04-26 15:13 | 38.91351 | 21.38600 | 39076 ft | 480 kts | 154° |
| 2026-04-26 15:13 | 38.85295 | 21.42657 | 39070 ft | 481 kts | 154° |
| 2026-04-26 15:14 | 38.79189 | 21.46739 | 39073 ft | 481 kts | 154° |
| 2026-04-26 15:14 | 38.73100 | 21.50803 | 39074 ft | 482 kts | 154° |
| 2026-04-26 15:15 | 38.66980 | 21.54880 | 39074 ft | 482 kts | 154° |
| 2026-04-26 15:15 | 38.60815 | 21.58978 | 39076 ft | 482 kts | 154° |
| 2026-04-26 15:16 | 38.54630 | 21.63081 | 39079 ft | 482 kts | 154° |
| 2026-04-26 15:16 | 38.48605 | 21.67070 | 39077 ft | 482 kts | 155° |
| 2026-04-26 15:17 | 38.43636 | 21.70354 | 39074 ft | 483 kts | 154° |
| 2026-04-26 15:17 | 38.36637 | 21.74972 | 39072 ft | 483 kts | 154° |
| 2026-04-26 15:18 | 38.30489 | 21.79021 | 39080 ft | 483 kts | 154° |
| 2026-04-26 15:18 | 38.24187 | 21.83163 | 39072 ft | 482 kts | 154° |
| 2026-04-26 15:19 | 38.17804 | 21.87348 | 39072 ft | 483 kts | 154° |
| 2026-04-26 15:19 | 38.11397 | 21.91541 | 39088 ft | 483 kts | 154° |
| 2026-04-26 15:20 | 38.04911 | 21.95779 | 39116 ft | 484 kts | 154° |
| 2026-04-26 15:20 | 37.98423 | 22.00008 | 39136 ft | 483 kts | 154° |
| 2026-04-26 15:21 | 37.91878 | 22.04267 | 39125 ft | 483 kts | 154° |
| 2026-04-26 15:21 | 37.85520 | 22.08396 | 39126 ft | 483 kts | 154° |
| 2026-04-26 15:22 | 37.79117 | 22.12544 | 39116 ft | 485 kts | 154° |
| 2026-04-26 15:22 | 37.72743 | 22.16667 | 39111 ft | 485 kts | 154° |
| 2026-04-26 15:23 | 37.66266 | 22.20848 | 39105 ft | 486 kts | 154° |
| 2026-04-26 15:23 | 37.59781 | 22.25026 | 39099 ft | 486 kts | 154° |
| 2026-04-26 15:24 | 37.53309 | 22.29188 | 39085 ft | 487 kts | 154° |
| 2026-04-26 15:24 | 37.46881 | 22.33312 | 39076 ft | 487 kts | 154° |
| 2026-04-26 15:25 | 37.41468 | 22.36780 | 39075 ft | 488 kts | 154° |
| 2026-04-26 15:25 | 37.33822 | 22.41668 | 39072 ft | 488 kts | 154° |
| 2026-04-26 15:26 | 37.27124 | 22.45941 | 39067 ft | 488 kts | 154° |
| 2026-04-26 15:26 | 37.20449 | 22.50190 | 39063 ft | 489 kts | 154° |
| 2026-04-26 15:27 | 37.13679 | 22.54491 | 39066 ft | 490 kts | 153° |
| 2026-04-26 15:27 | 37.06946 | 22.58763 | 39054 ft | 490 kts | 154° |
| 2026-04-26 15:28 | 37.00245 | 22.63003 | 39050 ft | 490 kts | 153° |
| 2026-04-26 15:28 | 36.93780 | 22.67086 | 39046 ft | 490 kts | 154° |
| 2026-04-26 15:29 | 36.87439 | 22.71084 | 39041 ft | 491 kts | 154° |
| 2026-04-26 15:30 | 36.74862 | 22.78991 | 39031 ft | 491 kts | 154° |
| 2026-04-26 15:30 | 36.68541 | 22.82954 | 39028 ft | 491 kts | 154° |
| 2026-04-26 15:31 | 36.58911 | 22.88978 | 39046 ft | 491 kts | 154° |
| 2026-04-26 15:32 | 36.50361 | 22.94310 | 39037 ft | 492 kts | 154° |
| 2026-04-26 15:32 | 36.42810 | 22.99010 | 39027 ft | 492 kts | 154° |
| 2026-04-26 15:33 | 36.36339 | 23.03028 | 39024 ft | 493 kts | 154° |
| 2026-04-26 15:33 | 36.29815 | 23.07073 | 39034 ft | 494 kts | 154° |
| 2026-04-26 15:34 | 36.23348 | 23.11076 | 39026 ft | 494 kts | 154° |
| 2026-04-26 15:34 | 36.16882 | 23.15071 | 39014 ft | 494 kts | 154° |
| 2026-04-26 15:35 | 36.10434 | 23.19045 | 39023 ft | 494 kts | 154° |
| 2026-04-26 15:35 | 36.03962 | 23.23027 | 39012 ft | 494 kts | 154° |
| 2026-04-26 15:36 | 35.97531 | 23.26974 | 39027 ft | 495 kts | 154° |
| 2026-04-26 15:36 | 35.91039 | 23.30954 | 39019 ft | 496 kts | 154° |
| 2026-04-26 15:37 | 35.84573 | 23.34914 | 39027 ft | 495 kts | 154° |
| 2026-04-26 15:37 | 35.78210 | 23.38801 | 39019 ft | 495 kts | 154° |
| 2026-04-26 15:38 | 35.71827 | 23.42694 | 39027 ft | 496 kts | 154° |
| 2026-04-26 15:38 | 35.65413 | 23.46597 | 39026 ft | 497 kts | 154° |
| 2026-04-26 15:39 | 35.58926 | 23.50537 | 38958 ft | 498 kts | 154° |
| 2026-04-26 15:39 | 35.53460 | 23.53853 | 39013 ft | 498 kts | 154° |
| 2026-04-26 15:40 | 35.45688 | 23.58556 | 39033 ft | 498 kts | 154° |
| 2026-04-26 15:40 | 35.39048 | 23.62570 | 39006 ft | 499 kts | 154° |
| 2026-04-26 15:41 | 35.32449 | 23.66552 | 39028 ft | 499 kts | 155° |
| 2026-04-26 15:41 | 35.26051 | 23.70402 | 39022 ft | 500 kts | 155° |
| 2026-04-26 15:42 | 35.19651 | 23.74248 | 39026 ft | 501 kts | 154° |
| 2026-04-26 15:42 | 35.13054 | 23.78205 | 39026 ft | 502 kts | 154° |
| 2026-04-26 15:43 | 35.06492 | 23.82134 | 39013 ft | 503 kts | 154° |
| 2026-04-26 15:44 | 34.96579 | 23.88057 | 39020 ft | 502 kts | 155° |
| 2026-04-26 15:44 | 34.86675 | 23.93957 | 38998 ft | 503 kts | 154° |
| 2026-04-26 15:45 | 34.76889 | 23.99774 | 38995 ft | 504 kts | 155° |
| 2026-04-26 15:46 | 34.66921 | 24.05681 | 38986 ft | 504 kts | 155° |
| 2026-04-26 15:46 | 34.61370 | 24.08965 | 38982 ft | 505 kts | 155° |
| 2026-04-26 15:47 | 34.50291 | 24.15504 | 39017 ft | 506 kts | 155° |
| 2026-04-26 15:48 | 34.43683 | 24.19396 | 39003 ft | 507 kts | 155° |
| 2026-04-26 15:48 | 34.36997 | 24.23326 | 38985 ft | 506 kts | 155° |
| 2026-04-26 15:49 | 34.30373 | 24.27212 | 39001 ft | 507 kts | 155° |
| 2026-04-26 15:49 | 34.23711 | 24.31117 | 38994 ft | 507 kts | 155° |
| 2026-04-26 15:50 | 34.16992 | 24.35050 | 39008 ft | 508 kts | 155° |
| 2026-04-26 15:50 | 34.10345 | 24.38938 | 39002 ft | 509 kts | 155° |
| 2026-04-26 15:51 | 34.03728 | 24.42995 | 38993 ft | 510 kts | 151° |
| 2026-04-26 15:51 | 33.97422 | 24.47963 | 38990 ft | 511 kts | 143° |
| 2026-04-26 15:52 | 33.91601 | 24.53860 | 38990 ft | 511 kts | 138° |
| 2026-04-26 15:52 | 33.86069 | 24.59848 | 38983 ft | 512 kts | 137° |
| 2026-04-26 15:53 | 33.80432 | 24.65924 | 38988 ft | 513 kts | 139° |
| 2026-04-26 15:53 | 33.74869 | 24.71891 | 38972 ft | 513 kts | 139° |
| 2026-04-26 15:54 | 33.69288 | 24.77861 | 38992 ft | 514 kts | 139° |
| 2026-04-26 15:54 | 33.63662 | 24.83865 | 38981 ft | 515 kts | 139° |
| 2026-04-26 15:55 | 33.58095 | 24.89793 | 38997 ft | 516 kts | 140° |
| 2026-04-26 15:55 | 33.52541 | 24.95698 | 38993 ft | 516 kts | 140° |
| 2026-04-26 15:56 | 33.46931 | 25.01650 | 38988 ft | 515 kts | 140° |
| 2026-04-26 15:56 | 33.41294 | 25.07624 | 38989 ft | 515 kts | 140° |
| 2026-04-26 15:57 | 33.35612 | 25.13629 | 38996 ft | 516 kts | 140° |
| 2026-04-26 15:57 | 33.29972 | 25.19586 | 38990 ft | 516 kts | 140° |
| 2026-04-26 15:58 | 33.24324 | 25.25537 | 38993 ft | 516 kts | 140° |
| 2026-04-26 15:58 | 33.18717 | 25.31432 | 38995 ft | 516 kts | 141° |
| 2026-04-26 15:59 | 33.13329 | 25.37089 | 39004 ft | 516 kts | 141° |
| 2026-04-26 15:59 | 33.07920 | 25.42761 | 38988 ft | 515 kts | 141° |
| 2026-04-26 16:00 | 33.02529 | 25.48400 | 38988 ft | 515 kts | 141° |
| 2026-04-26 16:00 | 32.97042 | 25.54130 | 38985 ft | 517 kts | 141° |
| 2026-04-26 16:01 | 32.91627 | 25.59774 | 38991 ft | 517 kts | 141° |
| 2026-04-26 16:01 | 32.86018 | 25.65615 | 38982 ft | 517 kts | 142° |
| 2026-04-26 16:02 | 32.80563 | 25.71285 | 38991 ft | 516 kts | 142° |
| 2026-04-26 16:02 | 32.75082 | 25.76969 | 38984 ft | 517 kts | 142° |
| 2026-04-26 16:03 | 32.69449 | 25.82802 | 38975 ft | 518 kts | 142° |
| 2026-04-26 16:03 | 32.63714 | 25.88731 | 38973 ft | 520 kts | 142° |
| 2026-04-26 16:04 | 32.57996 | 25.94632 | 38981 ft | 520 kts | 142° |
| 2026-04-26 16:04 | 32.52282 | 26.00521 | 38971 ft | 520 kts | 142° |
| 2026-04-26 16:05 | 32.46481 | 26.06485 | 38970 ft | 521 kts | 142° |
| 2026-04-26 16:05 | 32.40724 | 26.12396 | 38967 ft | 522 kts | 142° |
| 2026-04-26 16:06 | 32.34897 | 26.18367 | 38977 ft | 522 kts | 143° |
| 2026-04-26 16:06 | 32.29073 | 26.24326 | 38976 ft | 523 kts | 143° |
| 2026-04-26 16:07 | 32.23225 | 26.30297 | 38983 ft | 524 kts | 143° |
| 2026-04-26 16:07 | 32.17355 | 26.36278 | 38964 ft | 525 kts | 143° |
| 2026-04-26 16:08 | 32.11598 | 26.42139 | 38993 ft | 526 kts | 143° |
| 2026-04-26 16:08 | 32.05785 | 26.48045 | 38967 ft | 527 kts | 143° |
| 2026-04-26 16:09 | 31.99991 | 26.53921 | 38971 ft | 528 kts | 143° |
| 2026-04-26 16:09 | 31.94128 | 26.59857 | 38979 ft | 528 kts | 143° |
| 2026-04-26 16:10 | 31.88320 | 26.65727 | 38968 ft | 527 kts | 144° |
| 2026-04-26 16:10 | 31.82658 | 26.71439 | 38958 ft | 527 kts | 144° |
| 2026-04-26 16:11 | 31.76939 | 26.77202 | 38984 ft | 527 kts | 144° |
| 2026-04-26 16:11 | 31.71153 | 26.83019 | 39006 ft | 527 kts | 144° |
| 2026-04-26 16:12 | 31.65382 | 26.88813 | 39003 ft | 527 kts | 144° |
| 2026-04-26 16:12 | 31.56710 | 26.97504 | 38982 ft | 526 kts | 144° |
| 2026-04-26 16:13 | 31.50890 | 27.03324 | 38981 ft | 527 kts | 144° |
| 2026-04-26 16:13 | 31.45046 | 27.09164 | 38981 ft | 527 kts | 144° |
| 2026-04-26 16:14 | 31.39187 | 27.15011 | 38984 ft | 526 kts | 145° |
| 2026-04-26 16:15 | 31.30873 | 27.24567 | 38974 ft | 534 kts | 134° |
| 2026-04-26 16:15 | 31.26157 | 27.31988 | 38990 ft | 538 kts | 127° |
| 2026-04-26 16:16 | 31.19491 | 27.43680 | 38986 ft | 539 kts | 127° |
| 2026-04-26 16:16 | 31.14939 | 27.51557 | 38984 ft | 538 kts | 128° |
| 2026-04-26 16:17 | 31.10350 | 27.59340 | 38978 ft | 537 kts | 129° |
| 2026-04-26 16:17 | 31.05744 | 27.67012 | 38978 ft | 537 kts | 129° |
| 2026-04-26 16:18 | 30.98845 | 27.78525 | 38962 ft | 538 kts | 130° |
| 2026-04-26 16:19 | 30.91770 | 27.90313 | 38976 ft | 540 kts | 129° |
| 2026-04-26 16:20 | 30.84823 | 28.01874 | 38977 ft | 539 kts | 130° |
| 2026-04-26 16:20 | 30.77819 | 28.13481 | 38968 ft | 539 kts | 130° |
| 2026-04-26 16:21 | 30.73139 | 28.21221 | 38972 ft | 539 kts | 130° |
| 2026-04-26 16:21 | 30.68412 | 28.29020 | 38975 ft | 539 kts | 130° |
| 2026-04-26 16:22 | 30.63678 | 28.36816 | 38985 ft | 540 kts | 130° |
| 2026-04-26 16:22 | 30.58972 | 28.44556 | 39000 ft | 539 kts | 130° |
| 2026-04-26 16:23 | 30.54227 | 28.52348 | 38992 ft | 539 kts | 130° |
| 2026-04-26 16:23 | 30.49491 | 28.60104 | 38982 ft | 538 kts | 131° |
| 2026-04-26 16:24 | 30.44814 | 28.67747 | 38980 ft | 538 kts | 131° |
| 2026-04-26 16:24 | 30.40238 | 28.75215 | 38982 ft | 538 kts | 131° |
| 2026-04-26 16:25 | 30.35571 | 28.82816 | 38988 ft | 538 kts | 131° |
| 2026-04-26 16:25 | 30.30837 | 28.90514 | 38978 ft | 539 kts | 131° |
| 2026-04-26 16:26 | 30.26902 | 28.96910 | 38980 ft | 538 kts | 131° |
| 2026-04-26 16:26 | 30.21382 | 29.05858 | 38974 ft | 541 kts | 131° |
| 2026-04-26 16:27 | 30.16635 | 29.13547 | 38970 ft | 540 kts | 131° |
| 2026-04-26 16:27 | 30.11990 | 29.21079 | 38963 ft | 540 kts | 131° |
| 2026-04-26 16:28 | 30.07361 | 29.28708 | 38970 ft | 541 kts | 131° |
| 2026-04-26 16:28 | 30.02736 | 29.36366 | 38970 ft | 541 kts | 131° |
| 2026-04-26 16:29 | 29.98063 | 29.44094 | 38961 ft | 540 kts | 131° |
| 2026-04-26 16:29 | 29.93376 | 29.51819 | 38962 ft | 541 kts | 131° |
| 2026-04-26 16:30 | 29.88631 | 29.59629 | 38963 ft | 541 kts | 131° |
| 2026-04-26 16:30 | 29.83894 | 29.67404 | 38967 ft | 542 kts | 132° |
| 2026-04-26 16:31 | 29.79108 | 29.75254 | 38979 ft | 541 kts | 131° |
| 2026-04-26 16:31 | 29.74347 | 29.83045 | 38979 ft | 540 kts | 132° |
| 2026-04-26 16:32 | 29.70358 | 29.89556 | 38980 ft | 541 kts | 132° |
| 2026-04-26 16:32 | 29.64812 | 29.98597 | 38992 ft | 542 kts | 132° |
| 2026-04-26 16:33 | 29.60093 | 30.06277 | 39003 ft | 541 kts | 132° |
| 2026-04-26 16:33 | 29.55392 | 30.13915 | 39004 ft | 541 kts | 132° |
| 2026-04-26 16:34 | 29.50627 | 30.21646 | 39002 ft | 541 kts | 132° |
| 2026-04-26 16:34 | 29.45806 | 30.29461 | 39001 ft | 540 kts | 132° |
| 2026-04-26 16:35 | 29.41013 | 30.37126 | 38993 ft | 538 kts | 135° |
| 2026-04-26 16:35 | 29.35736 | 30.44100 | 38981 ft | 530 kts | 142° |
| 2026-04-26 16:36 | 29.30107 | 30.50765 | 38972 ft | 530 kts | 142° |
| 2026-04-26 16:36 | 29.24610 | 30.57277 | 38971 ft | 530 kts | 142° |
| 2026-04-26 16:37 | 29.19106 | 30.63817 | 38962 ft | 530 kts | 142° |
| 2026-04-26 16:37 | 29.14412 | 30.69393 | 38974 ft | 529 kts | 142° |
| 2026-04-26 16:38 | 29.07818 | 30.77219 | 38972 ft | 528 kts | 142° |
| 2026-04-26 16:38 | 29.02280 | 30.83771 | 38974 ft | 528 kts | 142° |
| 2026-04-26 16:39 | 28.96700 | 30.90367 | 38978 ft | 529 kts | 142° |
| 2026-04-26 16:39 | 28.91094 | 30.96987 | 38978 ft | 528 kts | 142° |
| 2026-04-26 16:40 | 28.85423 | 31.03675 | 38990 ft | 527 kts | 143° |
| 2026-04-26 16:40 | 28.79754 | 31.10349 | 38999 ft | 527 kts | 143° |
| 2026-04-26 16:41 | 28.74120 | 31.16975 | 39005 ft | 526 kts | 143° |
| 2026-04-26 16:41 | 28.68630 | 31.23515 | 39004 ft | 529 kts | 141° |
| 2026-04-26 16:42 | 28.63464 | 31.29995 | 39009 ft | 530 kts | 140° |
| 2026-04-26 16:42 | 28.58243 | 31.36573 | 39009 ft | 531 kts | 140° |
| 2026-04-26 16:43 | 28.53079 | 31.43069 | 39018 ft | 530 kts | 141° |
| 2026-04-26 16:43 | 28.47897 | 31.49573 | 39015 ft | 530 kts | 141° |
| 2026-04-26 16:44 | 28.42618 | 31.56186 | 39010 ft | 530 kts | 141° |
| 2026-04-26 16:44 | 28.37353 | 31.62771 | 39024 ft | 530 kts | 141° |
| 2026-04-26 16:45 | 28.31929 | 31.69549 | 39029 ft | 529 kts | 141° |
| 2026-04-26 16:45 | 28.26456 | 31.76376 | 39041 ft | 529 kts | 142° |
| 2026-04-26 16:46 | 28.21199 | 31.82925 | 39044 ft | 529 kts | 142° |
| 2026-04-26 16:46 | 28.15974 | 31.89430 | 39053 ft | 526 kts | 142° |
| 2026-04-26 16:47 | 28.10866 | 31.95774 | 39054 ft | 527 kts | 142° |
| 2026-04-26 16:47 | 28.05920 | 32.02070 | 39058 ft | 532 kts | 138° |
| 2026-04-26 16:48 | 28.01453 | 32.09046 | 39063 ft | 542 kts | 130° |
| 2026-04-26 16:48 | 27.97645 | 32.16644 | 39070 ft | 549 kts | 126° |
| 2026-04-26 16:49 | 27.94010 | 32.24298 | 39071 ft | 549 kts | 125° |
| 2026-04-26 16:49 | 27.90304 | 32.32033 | 39069 ft | 549 kts | 126° |
| 2026-04-26 16:50 | 27.86551 | 32.39809 | 39058 ft | 549 kts | 126° |
| 2026-04-26 16:50 | 27.82810 | 32.47533 | 39050 ft | 550 kts | 126° |
| 2026-04-26 16:51 | 27.79087 | 32.55203 | 39036 ft | 550 kts | 126° |
| 2026-04-26 16:51 | 27.75364 | 32.62853 | 39028 ft | 551 kts | 126° |
| 2026-04-26 16:52 | 27.72213 | 32.69318 | 39017 ft | 553 kts | 127° |
| 2026-04-26 16:52 | 27.67804 | 32.78354 | 39019 ft | 553 kts | 127° |
| 2026-04-26 16:53 | 27.64055 | 32.86014 | 39012 ft | 555 kts | 127° |
| 2026-04-26 16:53 | 27.60265 | 32.93766 | 39013 ft | 554 kts | 126° |
| 2026-04-26 16:54 | 27.56532 | 33.01385 | 39021 ft | 553 kts | 126° |
| 2026-04-26 16:54 | 27.52736 | 33.09092 | 39012 ft | 555 kts | 126° |
| 2026-04-26 16:55 | 27.48974 | 33.16744 | 38998 ft | 552 kts | 126° |
| 2026-04-26 16:55 | 27.45196 | 33.24412 | 38983 ft | 551 kts | 126° |
| 2026-04-26 16:56 | 27.39547 | 33.35846 | 38978 ft | 551 kts | 126° |
| 2026-04-26 16:57 | 27.35757 | 33.43475 | 38973 ft | 553 kts | 126° |
| 2026-04-26 16:57 | 27.29985 | 33.55079 | 38953 ft | 550 kts | 126° |
| 2026-04-26 16:58 | 27.26783 | 33.61507 | 38939 ft | 551 kts | 126° |
| 2026-04-26 16:59 | 27.20072 | 33.74973 | 38919 ft | 551 kts | 126° |
| 2026-04-26 17:00 | 27.13112 | 33.92493 | 38904 ft | 558 kts | 116° |
| 2026-04-26 17:00 | 27.08464 | 34.05701 | 38901 ft | 558 kts | 117° |
| 2026-04-26 17:01 | 27.05261 | 34.14694 | 38893 ft | 557 kts | 117° |
| 2026-04-26 17:01 | 27.02118 | 34.23475 | 38898 ft | 557 kts | 117° |
| 2026-04-26 17:02 | 26.98975 | 34.32202 | 38901 ft | 556 kts | 117° |
| 2026-04-26 17:02 | 26.95827 | 34.40931 | 38902 ft | 557 kts | 117° |
| 2026-04-26 17:03 | 26.92606 | 34.49862 | 38906 ft | 557 kts | 117° |
| 2026-04-26 17:03 | 26.89396 | 34.58754 | 38893 ft | 555 kts | 117° |
| 2026-04-26 17:04 | 26.86139 | 34.67742 | 38889 ft | 556 kts | 118° |
| 2026-04-26 17:04 | 26.83050 | 34.76255 | 38892 ft | 556 kts | 117° |
| 2026-04-26 17:05 | 26.79991 | 34.84682 | 38898 ft | 555 kts | 118° |
| 2026-04-26 17:05 | 26.76906 | 34.93150 | 38896 ft | 555 kts | 118° |
| 2026-04-26 17:06 | 26.73849 | 35.01500 | 38897 ft | 553 kts | 118° |
| 2026-04-26 17:06 | 26.70785 | 35.09846 | 38888 ft | 553 kts | 118° |
| 2026-04-26 17:07 | 26.67771 | 35.18065 | 38884 ft | 553 kts | 117° |
| 2026-04-26 17:07 | 26.64679 | 35.26488 | 38877 ft | 554 kts | 118° |
| 2026-04-26 17:08 | 26.61617 | 35.34815 | 38875 ft | 554 kts | 117° |
| 2026-04-26 17:08 | 26.58517 | 35.43240 | 38874 ft | 554 kts | 118° |
| 2026-04-26 17:09 | 26.55810 | 35.50533 | 38873 ft | 553 kts | 118° |
| 2026-04-26 17:09 | 26.51953 | 35.60598 | 38870 ft | 551 kts | 118° |
| 2026-04-26 17:10 | 26.48687 | 35.69101 | 38872 ft | 552 kts | 119° |
| 2026-04-26 17:10 | 26.45357 | 35.77789 | 38869 ft | 552 kts | 119° |
| 2026-04-26 17:11 | 26.42089 | 35.86297 | 38864 ft | 552 kts | 119° |
| 2026-04-26 17:11 | 26.38846 | 35.94735 | 38866 ft | 552 kts | 119° |
| 2026-04-26 17:12 | 26.33921 | 36.07503 | 38871 ft | 553 kts | 119° |
| 2026-04-26 17:13 | 26.28985 | 36.20272 | 38864 ft | 552 kts | 119° |
| 2026-04-26 17:14 | 26.23838 | 36.33541 | 38872 ft | 554 kts | 119° |
| 2026-04-26 17:14 | 26.18905 | 36.46229 | 38876 ft | 554 kts | 120° |
| 2026-04-26 17:15 | 26.13256 | 36.58295 | 38872 ft | 547 kts | 125° |
| 2026-04-26 17:16 | 26.09487 | 36.65867 | 38871 ft | 548 kts | 126° |
| 2026-04-26 17:16 | 26.05749 | 36.73420 | 38871 ft | 547 kts | 125° |
| 2026-04-26 17:17 | 26.02018 | 36.80966 | 38867 ft | 546 kts | 125° |
| 2026-04-26 17:17 | 25.98133 | 36.88816 | 38868 ft | 546 kts | 125° |
| 2026-04-26 17:18 | 25.94437 | 36.96269 | 38866 ft | 546 kts | 126° |
| 2026-04-26 17:18 | 25.90734 | 37.03724 | 38870 ft | 546 kts | 125° |
| 2026-04-26 17:19 | 25.85210 | 37.14832 | 38891 ft | 545 kts | 125° |
| 2026-04-26 17:19 | 25.81502 | 37.22281 | 38902 ft | 545 kts | 125° |
| 2026-04-26 17:20 | 25.78443 | 37.28404 | 38911 ft | 545 kts | 125° |
| 2026-04-26 17:20 | 25.74134 | 37.37032 | 38920 ft | 544 kts | 125° |
| 2026-04-26 17:21 | 25.70467 | 37.44381 | 38930 ft | 543 kts | 125° |
| 2026-04-26 17:21 | 25.66802 | 37.51719 | 38945 ft | 542 kts | 125° |
| 2026-04-26 17:22 | 25.63122 | 37.59074 | 38964 ft | 541 kts | 125° |
| 2026-04-26 17:22 | 25.59428 | 37.66450 | 38964 ft | 541 kts | 125° |
| 2026-04-26 17:23 | 25.55741 | 37.73801 | 38978 ft | 540 kts | 125° |
| 2026-04-26 17:23 | 25.52099 | 37.81048 | 38989 ft | 539 kts | 125° |
| 2026-04-26 17:24 | 25.48426 | 37.88345 | 38994 ft | 539 kts | 125° |
| 2026-04-26 17:24 | 25.44769 | 37.95599 | 39003 ft | 539 kts | 125° |
| 2026-04-26 17:25 | 25.41086 | 38.02895 | 39015 ft | 538 kts | 125° |
| 2026-04-26 17:25 | 25.37426 | 38.10133 | 39014 ft | 537 kts | 125° |
| 2026-04-26 17:26 | 25.33726 | 38.17438 | 39008 ft | 538 kts | 125° |
| 2026-04-26 17:26 | 25.30049 | 38.24688 | 39007 ft | 538 kts | 125° |
| 2026-04-26 17:27 | 25.26356 | 38.31962 | 39009 ft | 537 kts | 124° |
| 2026-04-26 17:27 | 25.22669 | 38.39216 | 39005 ft | 538 kts | 124° |
| 2026-04-26 17:28 | 25.18972 | 38.46491 | 39004 ft | 538 kts | 125° |
| 2026-04-26 17:28 | 25.15281 | 38.53711 | 39015 ft | 538 kts | 125° |
| 2026-04-26 17:29 | 25.12168 | 38.59760 | 39031 ft | 538 kts | 124° |
| 2026-04-26 17:29 | 25.07827 | 38.68222 | 39049 ft | 538 kts | 125° |
| 2026-04-26 17:30 | 25.04120 | 38.75445 | 39087 ft | 537 kts | 125° |
| 2026-04-26 17:30 | 25.00406 | 38.82679 | 39083 ft | 537 kts | 125° |
| 2026-04-26 17:31 | 24.96695 | 38.89891 | 39042 ft | 536 kts | 125° |
| 2026-04-26 17:31 | 24.92958 | 38.97106 | 39008 ft | 537 kts | 125° |
| 2026-04-26 17:32 | 24.89198 | 39.04360 | 38992 ft | 537 kts | 125° |
| 2026-04-26 17:32 | 24.85409 | 39.11680 | 38992 ft | 536 kts | 124° |
| 2026-04-26 17:33 | 24.81602 | 39.19028 | 38998 ft | 534 kts | 124° |
| 2026-04-26 17:34 | 24.75946 | 39.29872 | 39011 ft | 533 kts | 124° |
| 2026-04-26 17:34 | 24.72173 | 39.37111 | 39039 ft | 534 kts | 124° |
| 2026-04-26 17:35 | 24.68392 | 39.44369 | 39063 ft | 532 kts | 124° |
| 2026-04-26 17:35 | 24.64612 | 39.51614 | 39074 ft | 532 kts | 124° |
| 2026-04-26 17:36 | 24.60801 | 39.58908 | 39066 ft | 533 kts | 124° |
| 2026-04-26 17:36 | 24.57237 | 39.66521 | 39050 ft | 536 kts | 117° |
| 2026-04-26 17:37 | 24.54674 | 39.74849 | 39038 ft | 542 kts | 106° |
| 2026-04-26 17:37 | 24.53329 | 39.83508 | 39037 ft | 544 kts | 97° |
| 2026-04-26 17:38 | 24.52200 | 39.96176 | 39054 ft | 543 kts | 97° |
| 2026-04-26 17:38 | 24.51412 | 40.04601 | 39062 ft | 543 kts | 97° |
| 2026-04-26 17:39 | 24.50593 | 40.13072 | 39070 ft | 542 kts | 97° |
| 2026-04-26 17:39 | 24.49770 | 40.21483 | 39077 ft | 543 kts | 97° |
| 2026-04-26 17:40 | 24.49077 | 40.28497 | 39072 ft | 543 kts | 97° |
| 2026-04-26 17:40 | 24.48109 | 40.38296 | 39068 ft | 543 kts | 97° |
| 2026-04-26 17:41 | 24.47268 | 40.46775 | 39069 ft | 543 kts | 97° |
| 2026-04-26 17:41 | 24.46415 | 40.55337 | 39074 ft | 543 kts | 97° |
| 2026-04-26 17:42 | 24.45549 | 40.63905 | 39081 ft | 543 kts | 97° |
| 2026-04-26 17:42 | 24.44669 | 40.72481 | 39078 ft | 543 kts | 98° |
| 2026-04-26 17:43 | 24.43775 | 40.81183 | 39086 ft | 543 kts | 98° |
| 2026-04-26 17:43 | 24.42891 | 40.89797 | 39090 ft | 543 kts | 97° |
| 2026-04-26 17:44 | 24.42009 | 40.98370 | 39091 ft | 542 kts | 97° |
| 2026-04-26 17:44 | 24.41104 | 41.07079 | 39086 ft | 542 kts | 97° |
| 2026-04-26 17:45 | 24.40179 | 41.15834 | 39090 ft | 542 kts | 97° |
| 2026-04-26 17:45 | 24.39250 | 41.24619 | 39098 ft | 542 kts | 98° |
| 2026-04-26 17:46 | 24.38307 | 41.33547 | 39102 ft | 542 kts | 97° |
| 2026-04-26 17:46 | 24.37368 | 41.42377 | 39096 ft | 543 kts | 98° |
| 2026-04-26 17:47 | 24.36579 | 41.49760 | 39102 ft | 542 kts | 97° |
| 2026-04-26 17:47 | 24.35489 | 41.59959 | 39095 ft | 543 kts | 97° |
| 2026-04-26 17:48 | 24.34529 | 41.68891 | 39087 ft | 543 kts | 98° |
| 2026-04-26 17:48 | 24.33555 | 41.77836 | 39088 ft | 543 kts | 99° |
| 2026-04-26 17:49 | 24.31962 | 41.86704 | 39088 ft | 540 kts | 107° |
| 2026-04-26 17:49 | 24.29773 | 41.95035 | 39094 ft | 540 kts | 109° |
| 2026-04-26 17:50 | 24.27555 | 42.03319 | 39100 ft | 540 kts | 109° |
| 2026-04-26 17:50 | 24.25382 | 42.11507 | 39104 ft | 540 kts | 108° |
| 2026-04-26 17:51 | 24.23214 | 42.19706 | 39104 ft | 539 kts | 108° |
| 2026-04-26 17:51 | 24.21050 | 42.27865 | 39109 ft | 539 kts | 108° |
| 2026-04-26 17:52 | 24.18871 | 42.36080 | 39108 ft | 538 kts | 108° |
| 2026-04-26 17:52 | 24.16665 | 42.44369 | 39109 ft | 538 kts | 108° |
| 2026-04-26 17:53 | 24.14468 | 42.52604 | 39111 ft | 538 kts | 108° |
| 2026-04-26 17:54 | 24.11162 | 42.64971 | 39115 ft | 538 kts | 108° |
| 2026-04-26 17:54 | 24.08944 | 42.73244 | 39110 ft | 538 kts | 108° |
| 2026-04-26 17:55 | 24.06743 | 42.81443 | 39117 ft | 538 kts | 108° |
| 2026-04-26 17:55 | 24.04564 | 42.89538 | 39121 ft | 537 kts | 108° |
| 2026-04-26 17:56 | 24.02341 | 42.97702 | 39122 ft | 537 kts | 108° |
| 2026-04-26 17:57 | 23.97962 | 43.13809 | 39124 ft | 536 kts | 108° |
| 2026-04-26 17:57 | 23.95751 | 43.21936 | 39119 ft | 535 kts | 108° |
| 2026-04-26 17:58 | 23.91350 | 43.38045 | 39130 ft | 534 kts | 108° |
| 2026-04-26 17:59 | 23.88009 | 43.50233 | 39140 ft | 533 kts | 108° |
| 2026-04-26 17:59 | 23.85792 | 43.58305 | 39134 ft | 533 kts | 108° |
| 2026-04-26 18:00 | 23.83574 | 43.66363 | 39128 ft | 532 kts | 108° |
| 2026-04-26 18:00 | 23.81372 | 43.74356 | 39125 ft | 532 kts | 108° |
| 2026-04-26 18:01 | 23.79142 | 43.82423 | 39126 ft | 531 kts | 107° |
| 2026-04-26 18:01 | 23.77374 | 43.90663 | 39123 ft | 532 kts | 99° |
| 2026-04-26 18:02 | 23.76620 | 43.97604 | 39123 ft | 531 kts | 94° |
| 2026-04-26 18:02 | 23.75933 | 44.07418 | 39124 ft | 531 kts | 94° |
| 2026-04-26 18:03 | 23.75333 | 44.15781 | 39117 ft | 531 kts | 94° |
| 2026-04-26 18:03 | 23.74705 | 44.24191 | 39116 ft | 531 kts | 94° |
| 2026-04-26 18:04 | 23.74042 | 44.32942 | 39117 ft | 531 kts | 94° |
| 2026-04-26 18:05 | 23.73060 | 44.45800 | 39121 ft | 531 kts | 94° |
| 2026-04-26 18:05 | 23.72400 | 44.54330 | 39139 ft | 531 kts | 94° |
| 2026-04-26 18:06 | 23.71727 | 44.63023 | 39143 ft | 531 kts | 94° |
| 2026-04-26 18:06 | 23.71046 | 44.71731 | 39139 ft | 531 kts | 94° |
| 2026-04-26 18:07 | 23.70360 | 44.80509 | 39136 ft | 531 kts | 95° |
| 2026-04-26 18:07 | 23.69687 | 44.88970 | 39133 ft | 530 kts | 95° |
| 2026-04-26 18:08 | 23.68997 | 44.97486 | 39131 ft | 531 kts | 95° |
| 2026-04-26 18:08 | 23.68323 | 45.05832 | 39122 ft | 530 kts | 95° |
| 2026-04-26 18:09 | 23.67653 | 45.14130 | 39121 ft | 530 kts | 95° |
| 2026-04-26 18:09 | 23.66974 | 45.22446 | 39120 ft | 531 kts | 95° |
| 2026-04-26 18:10 | 23.66284 | 45.30719 | 39106 ft | 530 kts | 95° |
| 2026-04-26 18:10 | 23.65593 | 45.39016 | 39098 ft | 529 kts | 95° |
| 2026-04-26 18:11 | 23.64911 | 45.47225 | 39099 ft | 529 kts | 94° |
| 2026-04-26 18:11 | 23.64225 | 45.55479 | 39091 ft | 528 kts | 95° |
| 2026-04-26 18:12 | 23.63528 | 45.63731 | 39081 ft | 528 kts | 95° |
| 2026-04-26 18:12 | 23.62803 | 45.72127 | 39072 ft | 528 kts | 95° |
| 2026-04-26 18:13 | 23.62063 | 45.80694 | 39068 ft | 528 kts | 95° |
| 2026-04-26 18:13 | 23.61344 | 45.89005 | 39065 ft | 528 kts | 95° |
| 2026-04-26 18:14 | 23.60618 | 45.97380 | 39065 ft | 528 kts | 95° |
| 2026-04-26 18:14 | 23.59882 | 46.05815 | 39064 ft | 528 kts | 95° |
| 2026-04-26 18:15 | 23.59132 | 46.14362 | 39081 ft | 528 kts | 95° |
| 2026-04-26 18:15 | 23.58385 | 46.22812 | 39100 ft | 527 kts | 95° |
| 2026-04-26 18:16 | 23.57637 | 46.31239 | 39111 ft | 526 kts | 95° |
| 2026-04-26 18:16 | 23.56530 | 46.43663 | 39123 ft | 526 kts | 95° |
| 2026-04-26 18:17 | 23.55793 | 46.51853 | 39140 ft | 525 kts | 95° |
| 2026-04-26 18:17 | 23.55031 | 46.60142 | 39122 ft | 524 kts | 95° |
| 2026-04-26 18:18 | 23.54258 | 46.68511 | 39095 ft | 524 kts | 96° |
| 2026-04-26 18:18 | 23.53473 | 46.77030 | 39078 ft | 526 kts | 96° |
| 2026-04-26 18:19 | 23.52685 | 46.85537 | 39063 ft | 536 kts | 96° |
| 2026-04-26 18:19 | 23.51899 | 46.93980 | 39044 ft | 537 kts | 96° |
| 2026-04-26 18:20 | 23.51116 | 47.02327 | 39052 ft | 537 kts | 96° |
| 2026-04-26 18:20 | 23.50459 | 47.09313 | 39054 ft | 537 kts | 95° |
| 2026-04-26 18:21 | 23.49532 | 47.19132 | 39042 ft | 536 kts | 95° |
| 2026-04-26 18:21 | 23.48729 | 47.27562 | 39052 ft | 537 kts | 95° |
| 2026-04-26 18:22 | 23.47934 | 47.35892 | 39049 ft | 537 kts | 95° |
| 2026-04-26 18:22 | 23.47132 | 47.44283 | 39041 ft | 537 kts | 95° |
| 2026-04-26 18:23 | 23.46323 | 47.52631 | 39051 ft | 536 kts | 95° |
| 2026-04-26 18:23 | 23.45502 | 47.60941 | 39036 ft | 535 kts | 95° |
| 2026-04-26 18:24 | 23.44685 | 47.69245 | 39029 ft | 535 kts | 96° |
| 2026-04-26 18:24 | 23.43861 | 47.77588 | 39023 ft | 535 kts | 96° |
| 2026-04-26 18:25 | 23.43038 | 47.85905 | 39016 ft | 535 kts | 96° |
| 2026-04-26 18:25 | 23.42211 | 47.94202 | 39005 ft | 535 kts | 96° |
| 2026-04-26 18:26 | 23.41388 | 48.02436 | 38997 ft | 524 kts | 96° |
| 2026-04-26 18:26 | 23.40577 | 48.10534 | 38997 ft | 518 kts | 96° |
| 2026-04-26 18:27 | 23.39773 | 48.18534 | 38991 ft | 518 kts | 96° |
| 2026-04-26 18:27 | 23.38964 | 48.26536 | 38991 ft | 518 kts | 96° |
| 2026-04-26 18:28 | 23.38191 | 48.34552 | 38988 ft | 517 kts | 93° |
| 2026-04-26 18:28 | 23.37814 | 48.42611 | 38984 ft | 517 kts | 91° |
| 2026-04-26 18:29 | 23.37504 | 48.50607 | 38987 ft | 516 kts | 91° |
| 2026-04-26 18:29 | 23.37184 | 48.58669 | 38983 ft | 517 kts | 91° |
| 2026-04-26 18:30 | 23.36854 | 48.66736 | 38978 ft | 517 kts | 92° |
| 2026-04-26 18:30 | 23.36514 | 48.74925 | 38977 ft | 516 kts | 92° |
| 2026-04-26 18:31 | 23.36171 | 48.83073 | 38970 ft | 517 kts | 92° |
| 2026-04-26 18:31 | 23.35829 | 48.91104 | 38957 ft | 517 kts | 92° |
| 2026-04-26 18:32 | 23.35482 | 48.99212 | 38952 ft | 517 kts | 91° |
| 2026-04-26 18:32 | 23.34989 | 49.07432 | 38941 ft | 517 kts | 96° |
| 2026-04-26 18:33 | 23.33888 | 49.15530 | 38946 ft | 517 kts | 98° |
| 2026-04-26 18:33 | 23.32704 | 49.23597 | 38930 ft | 517 kts | 98° |
| 2026-04-26 18:34 | 23.31501 | 49.31850 | 38920 ft | 516 kts | 98° |
| 2026-04-26 18:34 | 23.30300 | 49.40133 | 38925 ft | 517 kts | 98° |
| 2026-04-26 18:35 | 23.29091 | 49.48452 | 38923 ft | 517 kts | 98° |
| 2026-04-26 18:35 | 23.27899 | 49.56636 | 38920 ft | 517 kts | 98° |
| 2026-04-26 18:36 | 23.26701 | 49.64841 | 38925 ft | 517 kts | 98° |
| 2026-04-26 18:36 | 23.25507 | 49.72974 | 38918 ft | 518 kts | 98° |
| 2026-04-26 18:37 | 23.24294 | 49.81199 | 38916 ft | 517 kts | 98° |
| 2026-04-26 18:37 | 23.23082 | 49.89398 | 38921 ft | 518 kts | 98° |
| 2026-04-26 18:38 | 23.21880 | 49.97499 | 38915 ft | 518 kts | 98° |
| 2026-04-26 18:38 | 23.20682 | 50.05530 | 38908 ft | 517 kts | 98° |
| 2026-04-26 18:39 | 23.19476 | 50.13605 | 38914 ft | 517 kts | 98° |
| 2026-04-26 18:39 | 23.18268 | 50.21661 | 38916 ft | 518 kts | 98° |
| 2026-04-26 18:40 | 23.17045 | 50.29780 | 38919 ft | 517 kts | 98° |
| 2026-04-26 18:40 | 23.15838 | 50.37767 | 38922 ft | 517 kts | 98° |
| 2026-04-26 18:41 | 23.14611 | 50.45851 | 38910 ft | 517 kts | 98° |
| 2026-04-26 18:41 | 23.13395 | 50.53848 | 38901 ft | 516 kts | 98° |
| 2026-04-26 18:42 | 23.12184 | 50.61780 | 38903 ft | 517 kts | 98° |
| 2026-04-26 18:42 | 23.10960 | 50.69777 | 38892 ft | 516 kts | 98° |
| 2026-04-26 18:43 | 23.09734 | 50.77744 | 38892 ft | 517 kts | 98° |
| 2026-04-26 18:43 | 23.08504 | 50.85718 | 38893 ft | 516 kts | 98° |
| 2026-04-26 18:44 | 23.07272 | 50.93671 | 38897 ft | 516 kts | 98° |
| 2026-04-26 18:44 | 23.06030 | 51.01663 | 38902 ft | 516 kts | 98° |
| 2026-04-26 18:45 | 23.04786 | 51.09654 | 38906 ft | 516 kts | 98° |
| 2026-04-26 18:45 | 23.03547 | 51.17576 | 38906 ft | 515 kts | 98° |
| 2026-04-26 18:46 | 23.02296 | 51.25544 | 38905 ft | 515 kts | 98° |
| 2026-04-26 18:46 | 23.01042 | 51.33501 | 38903 ft | 515 kts | 98° |
| 2026-04-26 18:47 | 22.99788 | 51.41440 | 38904 ft | 515 kts | 98° |
| 2026-04-26 18:47 | 22.98540 | 51.49311 | 38903 ft | 515 kts | 98° |
| 2026-04-26 18:48 | 22.97299 | 51.57130 | 38903 ft | 514 kts | 98° |
| 2026-04-26 18:48 | 22.96044 | 51.64991 | 38901 ft | 514 kts | 98° |
| 2026-04-26 18:49 | 22.94791 | 51.72822 | 38897 ft | 514 kts | 99° |
| 2026-04-26 18:49 | 22.93525 | 51.80698 | 38894 ft | 514 kts | 98° |
| 2026-04-26 18:50 | 22.92252 | 51.88604 | 38888 ft | 514 kts | 98° |
| 2026-04-26 18:50 | 22.90984 | 51.96461 | 38881 ft | 514 kts | 98° |
| 2026-04-26 18:51 | 22.89699 | 52.04396 | 38879 ft | 515 kts | 98° |
| 2026-04-26 18:51 | 22.88421 | 52.12254 | 38878 ft | 514 kts | 98° |
| 2026-04-26 18:52 | 22.87356 | 52.18790 | 38884 ft | 513 kts | 98° |
| 2026-04-26 18:52 | 22.85852 | 52.28004 | 38885 ft | 513 kts | 98° |
| 2026-04-26 18:53 | 22.84568 | 52.35857 | 38888 ft | 512 kts | 98° |
| 2026-04-26 18:53 | 22.83273 | 52.43735 | 38892 ft | 513 kts | 98° |
| 2026-04-26 18:54 | 22.82343 | 52.51664 | 38895 ft | 510 kts | 91° |
| 2026-04-26 18:54 | 22.82083 | 52.59548 | 38904 ft | 509 kts | 89° |
| 2026-04-26 18:55 | 22.81905 | 52.67433 | 38907 ft | 509 kts | 89° |
| 2026-04-26 18:55 | 22.81711 | 52.75274 | 38908 ft | 509 kts | 89° |
| 2026-04-26 18:56 | 22.81503 | 52.83202 | 38912 ft | 509 kts | 89° |
| 2026-04-26 18:56 | 22.81282 | 52.91328 | 38911 ft | 509 kts | 89° |
| 2026-04-26 18:57 | 22.81101 | 52.97883 | 38912 ft | 508 kts | 89° |
| 2026-04-26 18:57 | 22.80840 | 53.07165 | 38915 ft | 509 kts | 89° |
| 2026-04-26 18:58 | 22.80603 | 53.15463 | 38911 ft | 509 kts | 89° |
| 2026-04-26 18:58 | 22.80372 | 53.23414 | 38906 ft | 508 kts | 89° |
| 2026-04-26 18:59 | 22.80134 | 53.31429 | 38903 ft | 508 kts | 89° |
| 2026-04-26 18:59 | 22.79890 | 53.39473 | 38900 ft | 507 kts | 89° |
| 2026-04-26 19:00 | 22.79645 | 53.47520 | 38897 ft | 507 kts | 89° |
| 2026-04-26 19:00 | 22.79399 | 53.55413 | 38891 ft | 506 kts | 89° |
| 2026-04-26 19:01 | 22.79150 | 53.63327 | 38889 ft | 506 kts | 89° |
| 2026-04-26 19:01 | 22.78896 | 53.71330 | 38885 ft | 506 kts | 89° |
| 2026-04-26 19:02 | 22.78642 | 53.79254 | 38886 ft | 506 kts | 89° |
| 2026-04-26 19:02 | 22.78429 | 53.85784 | 38889 ft | 506 kts | 89° |
| 2026-04-26 19:03 | 22.78222 | 53.94978 | 38897 ft | 505 kts | 86° |
| 2026-04-26 19:03 | 22.78772 | 54.02778 | 38904 ft | 502 kts | 78° |
| 2026-04-26 19:04 | 22.80123 | 54.10435 | 38902 ft | 499 kts | 73° |
| 2026-04-26 19:04 | 22.81697 | 54.18025 | 38904 ft | 498 kts | 73° |
| 2026-04-26 19:05 | 22.84020 | 54.29365 | 38899 ft | 497 kts | 74° |
| 2026-04-26 19:06 | 22.85542 | 54.36885 | 38906 ft | 498 kts | 73° |
| 2026-04-26 19:06 | 22.87071 | 54.44470 | 38903 ft | 498 kts | 73° |
| 2026-04-26 19:07 | 22.88585 | 54.51998 | 38901 ft | 498 kts | 73° |
| 2026-04-26 19:07 | 22.90112 | 54.59595 | 38894 ft | 498 kts | 74° |
| 2026-04-26 19:08 | 22.91618 | 54.67128 | 38889 ft | 498 kts | 74° |
| 2026-04-26 19:08 | 22.93106 | 54.74578 | 38885 ft | 497 kts | 74° |
| 2026-04-26 19:09 | 22.94606 | 54.82113 | 38879 ft | 497 kts | 74° |
| 2026-04-26 19:09 | 22.96080 | 54.89532 | 38881 ft | 497 kts | 74° |
| 2026-04-26 19:10 | 22.97559 | 54.96981 | 38883 ft | 497 kts | 74° |
| 2026-04-26 19:10 | 22.99054 | 55.04526 | 38885 ft | 497 kts | 74° |
| 2026-04-26 19:11 | 23.00563 | 55.12121 | 38876 ft | 496 kts | 71° |
| 2026-04-26 19:11 | 23.01690 | 55.15686 | 38872 ft | 488 kts | 60° |
| 2026-04-26 19:11 | 23.03428 | 55.19062 | 38878 ft | 481 kts | 50° |
| 2026-04-26 19:12 | 23.08147 | 55.24325 | 38880 ft | 468 kts | 30° |
| 2026-04-26 19:12 | 23.13870 | 55.27478 | 38887 ft | 456 kts | 12° |
| 2026-04-26 19:13 | 23.20012 | 55.29307 | 38888 ft | 459 kts | 10° |
| 2026-04-26 19:13 | 23.26277 | 55.31106 | 38892 ft | 461 kts | 10° |
| 2026-04-26 19:14 | 23.32740 | 55.32991 | 38896 ft | 461 kts | 10° |
| 2026-04-26 19:14 | 23.39208 | 55.34893 | 38896 ft | 460 kts | 10° |
| 2026-04-26 19:15 | 23.45649 | 55.36789 | 38894 ft | 461 kts | 10° |
| 2026-04-26 19:15 | 23.52159 | 55.38710 | 38329 ft | 464 kts | 10° |
| 2026-04-26 19:15 | 23.55393 | 55.39670 | 37694 ft | 464 kts | 10° |
| 2026-04-26 19:16 | 23.58664 | 55.40642 | 37059 ft | 463 kts | 9° |
| 2026-04-26 19:16 | 23.61944 | 55.41615 | 36399 ft | 464 kts | 9° |
| 2026-04-26 19:16 | 23.65032 | 55.42530 | 35737 ft | 464 kts | 9° |
| 2026-04-26 19:16 | 23.68314 | 55.43501 | 35076 ft | 463 kts | 9° |
| 2026-04-26 19:17 | 23.71580 | 55.44469 | 34435 ft | 462 kts | 9° |
| 2026-04-26 19:17 | 23.74822 | 55.45429 | 33778 ft | 461 kts | 9° |
| 2026-04-26 19:17 | 23.78081 | 55.46394 | 33123 ft | 461 kts | 9° |
| 2026-04-26 19:17 | 23.81307 | 55.47349 | 32479 ft | 460 kts | 9° |
| 2026-04-26 19:18 | 23.84530 | 55.48306 | 31824 ft | 461 kts | 9° |
| 2026-04-26 19:18 | 23.87924 | 55.49312 | 31091 ft | 463 kts | 9° |
| 2026-04-26 19:18 | 23.91225 | 55.50291 | 30340 ft | 466 kts | 10° |
| 2026-04-26 19:18 | 23.94568 | 55.51281 | 29509 ft | 470 kts | 10° |
| 2026-04-26 19:19 | 23.98018 | 55.52434 | 28582 ft | 479 kts | 16° |
| 2026-04-26 19:19 | 24.01037 | 55.53990 | 27719 ft | 490 kts | 25° |
| 2026-04-26 19:19 | 24.03872 | 55.56062 | 27082 ft | 493 kts | 34° |
| 2026-04-26 19:19 | 24.06441 | 55.58474 | 26590 ft | 491 kts | 38° |
| 2026-04-26 19:20 | 24.08996 | 55.61017 | 26068 ft | 487 kts | 39° |
| 2026-04-26 19:20 | 24.10674 | 55.62703 | 25682 ft | 486 kts | 39° |
| 2026-04-26 19:20 | 24.14071 | 55.66112 | 24923 ft | 482 kts | 40° |
| 2026-04-26 19:20 | 24.16533 | 55.68572 | 24410 ft | 478 kts | 39° |
| 2026-04-26 19:21 | 24.19014 | 55.71044 | 23914 ft | 473 kts | 40° |
| 2026-04-26 19:21 | 24.21522 | 55.73539 | 23414 ft | 468 kts | 40° |
| 2026-04-26 19:21 | 24.24000 | 55.76001 | 22918 ft | 464 kts | 40° |
| 2026-04-26 19:21 | 24.26472 | 55.78458 | 22416 ft | 459 kts | 40° |
| 2026-04-26 19:22 | 24.28870 | 55.80840 | 21937 ft | 454 kts | 40° |
| 2026-04-26 19:22 | 24.31247 | 55.83202 | 21474 ft | 450 kts | 40° |
| 2026-04-26 19:22 | 24.33541 | 55.85486 | 21023 ft | 445 kts | 40° |
| 2026-04-26 19:22 | 24.35884 | 55.87819 | 20571 ft | 441 kts | 40° |
| 2026-04-26 19:23 | 24.38337 | 55.90263 | 20089 ft | 436 kts | 40° |
| 2026-04-26 19:23 | 24.40747 | 55.92667 | 19634 ft | 432 kts | 40° |
| 2026-04-26 19:23 | 24.43089 | 55.95002 | 19179 ft | 428 kts | 40° |
| 2026-04-26 19:23 | 24.45387 | 55.97295 | 18726 ft | 424 kts | 41° |
| 2026-04-26 19:24 | 24.47739 | 55.99641 | 18263 ft | 421 kts | 41° |
| 2026-04-26 19:24 | 24.50058 | 56.01955 | 17807 ft | 417 kts | 41° |
| 2026-04-26 19:24 | 24.54543 | 56.06440 | 16922 ft | 411 kts | 41° |
| 2026-04-26 19:25 | 24.56807 | 56.08712 | 16456 ft | 408 kts | 41° |
| 2026-04-26 19:25 | 24.58317 | 56.10179 | 16147 ft | 406 kts | 37° |
| 2026-04-26 19:25 | 24.61815 | 56.12334 | 15538 ft | 399 kts | 18° |
| 2026-04-26 19:25 | 24.64716 | 56.13143 | 15076 ft | 394 kts | 8° |
| 2026-04-26 19:26 | 24.67634 | 56.13658 | 14615 ft | 391 kts | 6° |
| 2026-04-26 19:26 | 24.70501 | 56.14136 | 14154 ft | 389 kts | 7° |
| 2026-04-26 19:26 | 24.73397 | 56.14639 | 13685 ft | 386 kts | 7° |
| 2026-04-26 19:26 | 24.76231 | 56.15148 | 13249 ft | 379 kts | 7° |
| 2026-04-26 19:27 | 24.79037 | 56.15293 | 13089 ft | 373 kts | 352° |
| 2026-04-26 19:27 | 24.81695 | 56.14644 | 12927 ft | 352 kts | 338° |
| 2026-04-26 19:27 | 24.84112 | 56.13508 | 12774 ft | 333 kts | 333° |
| 2026-04-26 19:27 | 24.86274 | 56.12407 | 12599 ft | 313 kts | 332° |
| 2026-04-26 19:28 | 24.88269 | 56.11391 | 12501 ft | 288 kts | 333° |
| 2026-04-26 19:28 | 24.90154 | 56.10442 | 12469 ft | 279 kts | 333° |
| 2026-04-26 19:28 | 24.92042 | 56.09499 | 12343 ft | 276 kts | 333° |
| 2026-04-26 19:28 | 24.93866 | 56.08595 | 12228 ft | 275 kts | 333° |
| 2026-04-26 19:29 | 24.95744 | 56.07667 | 12133 ft | 274 kts | 332° |
| 2026-04-26 19:29 | 24.97490 | 56.06517 | 12028 ft | 271 kts | 319° |
| 2026-04-26 19:29 | 24.98943 | 56.05001 | 12030 ft | 269 kts | 310° |
| 2026-04-26 19:29 | 25.00237 | 56.03415 | 12035 ft | 270 kts | 309° |
| 2026-04-26 19:30 | 25.01565 | 56.01761 | 12025 ft | 270 kts | 309° |
| 2026-04-26 19:30 | 25.02899 | 56.00110 | 11817 ft | 271 kts | 309° |
| 2026-04-26 19:30 | 25.04220 | 55.98486 | 11472 ft | 269 kts | 309° |
| 2026-04-26 19:30 | 25.05101 | 55.97406 | 11270 ft | 267 kts | 309° |
| 2026-04-26 19:31 | 25.06853 | 55.95258 | 10949 ft | 262 kts | 309° |
| 2026-04-26 19:31 | 25.08148 | 55.93669 | 11000 ft | 260 kts | 309° |
| 2026-04-26 19:31 | 25.09445 | 55.92078 | 11012 ft | 258 kts | 309° |
| 2026-04-26 19:31 | 25.10763 | 55.90459 | 10994 ft | 258 kts | 309° |
| 2026-04-26 19:32 | 25.12053 | 55.88876 | 10692 ft | 256 kts | 309° |
| 2026-04-26 19:32 | 25.13342 | 55.87294 | 10380 ft | 254 kts | 309° |
| 2026-04-26 19:32 | 25.14621 | 55.85722 | 10093 ft | 252 kts | 308° |
| 2026-04-26 19:32 | 25.15796 | 55.84094 | 9823 ft | 249 kts | 303° |
| 2026-04-26 19:33 | 25.16824 | 55.82366 | 9557 ft | 248 kts | 300° |
| 2026-04-26 19:33 | 25.17803 | 55.80613 | 9277 ft | 246 kts | 300° |
| 2026-04-26 19:33 | 25.18782 | 55.78851 | 8993 ft | 245 kts | 300° |
| 2026-04-26 19:33 | 25.19747 | 55.77115 | 8719 ft | 243 kts | 300° |
| 2026-04-26 19:34 | 25.20709 | 55.75381 | 8453 ft | 243 kts | 300° |
| 2026-04-26 19:34 | 25.21679 | 55.73636 | 8170 ft | 242 kts | 300° |
| 2026-04-26 19:34 | 25.22644 | 55.71901 | 7911 ft | 241 kts | 300° |
| 2026-04-26 19:34 | 25.23584 | 55.70218 | 7635 ft | 239 kts | 301° |
| 2026-04-26 19:35 | 25.24525 | 55.68536 | 7307 ft | 232 kts | 301° |
| 2026-04-26 19:35 | 25.25417 | 55.66941 | 7194 ft | 216 kts | 301° |
| 2026-04-26 19:35 | 25.26212 | 55.65517 | 7182 ft | 208 kts | 301° |
| 2026-04-26 19:35 | 25.26965 | 55.64164 | 7004 ft | 207 kts | 301° |
| 2026-04-26 19:36 | 25.27725 | 55.62796 | 6774 ft | 207 kts | 301° |
| 2026-04-26 19:36 | 25.28218 | 55.61908 | 6627 ft | 206 kts | 301° |
| 2026-04-26 19:36 | 25.29211 | 55.60098 | 6319 ft | 205 kts | 297° |
| 2026-04-26 19:36 | 25.29486 | 55.58582 | 6050 ft | 206 kts | 269° |
| 2026-04-26 19:37 | 25.28987 | 55.57070 | 5882 ft | 221 kts | 240° |
| 2026-04-26 19:37 | 25.27787 | 55.55941 | 5915 ft | 233 kts | 217° |
| 2026-04-26 19:37 | 25.26382 | 55.55001 | 5948 ft | 234 kts | 214° |
| 2026-04-26 19:37 | 25.24699 | 55.54492 | 5936 ft | 244 kts | 181° |
| 2026-04-26 19:38 | 25.23089 | 55.55197 | 5958 ft | 253 kts | 143° |
| 2026-04-26 19:38 | 25.21998 | 55.56807 | 5994 ft | 255 kts | 121° |
| 2026-04-26 19:38 | 25.21104 | 55.58522 | 5982 ft | 242 kts | 119° |
| 2026-04-26 19:38 | 25.20246 | 55.60176 | 5962 ft | 224 kts | 120° |
| 2026-04-26 19:39 | 25.19434 | 55.61700 | 5957 ft | 211 kts | 121° |
| 2026-04-26 19:39 | 25.18620 | 55.63193 | 5980 ft | 220 kts | 121° |
| 2026-04-26 19:39 | 25.17733 | 55.64798 | 5990 ft | 226 kts | 121° |
| 2026-04-26 19:39 | 25.16858 | 55.66374 | 5990 ft | 227 kts | 121° |
| 2026-04-26 19:40 | 25.15984 | 55.67941 | 5984 ft | 228 kts | 121° |
| 2026-04-26 19:40 | 25.15078 | 55.69564 | 5997 ft | 229 kts | 121° |
| 2026-04-26 19:40 | 25.14172 | 55.71188 | 5996 ft | 228 kts | 122° |
| 2026-04-26 19:40 | 25.13260 | 55.72822 | 6003 ft | 229 kts | 122° |
| 2026-04-26 19:41 | 25.12346 | 55.74459 | 5992 ft | 228 kts | 122° |
| 2026-04-26 19:41 | 25.11445 | 55.76069 | 5988 ft | 228 kts | 122° |
| 2026-04-26 19:41 | 25.10529 | 55.77707 | 5989 ft | 229 kts | 122° |
| 2026-04-26 19:41 | 25.09940 | 55.78760 | 5987 ft | 229 kts | 121° |
| 2026-04-26 19:42 | 25.08815 | 55.80773 | 5993 ft | 230 kts | 122° |
| 2026-04-26 19:42 | 25.07944 | 55.82329 | 6002 ft | 230 kts | 122° |
| 2026-04-26 19:42 | 25.07036 | 55.83948 | 6003 ft | 230 kts | 123° |
| 2026-04-26 19:42 | 25.05900 | 55.85186 | 5970 ft | 211 kts | 159° |
| 2026-04-26 19:43 | 25.04424 | 55.85430 | 5987 ft | 197 kts | 197° |
| 2026-04-26 19:43 | 25.03170 | 55.84834 | 6014 ft | 188 kts | 218° |
| 2026-04-26 19:43 | 25.02064 | 55.84043 | 6016 ft | 187 kts | 220° |
| 2026-04-26 19:43 | 25.01078 | 55.83137 | 5997 ft | 179 kts | 240° |
| 2026-04-26 19:44 | 25.00631 | 55.81918 | 5998 ft | 171 kts | 265° |
| 2026-04-26 19:44 | 25.00456 | 55.80572 | 6012 ft | 173 kts | 265° |
| 2026-04-26 19:44 | 25.00294 | 55.79148 | 6002 ft | 171 kts | 277° |
| 2026-04-26 19:44 | 25.00911 | 55.78059 | 5784 ft | 168 kts | 331° |
| 2026-04-26 19:45 | 25.02086 | 55.77484 | 5779 ft | 169 kts | 318° |
| 2026-04-26 19:45 | 25.02670 | 55.76283 | 5773 ft | 168 kts | 277° |
| 2026-04-26 19:45 | 25.02793 | 55.74892 | 5779 ft | 168 kts | 293° |
| 2026-04-26 19:45 | 25.03577 | 55.73849 | 5670 ft | 164 kts | 316° |
| 2026-04-26 19:46 | 25.04507 | 55.72951 | 5269 ft | 167 kts | 314° |
| 2026-04-26 19:46 | 25.05327 | 55.71969 | 4926 ft | 167 kts | 308° |
| 2026-04-26 19:46 | 25.06063 | 55.70884 | 4475 ft | 175 kts | 304° |
| 2026-04-26 19:46 | 25.06820 | 55.69668 | 3637 ft | 195 kts | 303° |
| 2026-04-26 19:47 | 25.07623 | 55.68325 | 2967 ft | 199 kts | 303° |
| 2026-04-26 19:47 | 25.08124 | 55.67466 | 2844 ft | 185 kts | 302° |
| 2026-04-26 19:47 | 25.09001 | 55.65928 | 2793 ft | 153 kts | 301° |
| 2026-04-26 19:47 | 25.09576 | 55.64899 | 2805 ft | 151 kts | 301° |
| 2026-04-26 19:48 | 25.10167 | 55.63833 | 2822 ft | 150 kts | 301° |
| 2026-04-26 19:48 | 25.10760 | 55.62755 | 2779 ft | 150 kts | 301° |
| 2026-04-26 19:48 | 25.11353 | 55.61673 | 2732 ft | 150 kts | 301° |
| 2026-04-26 19:48 | 25.11951 | 55.60580 | 2689 ft | 150 kts | 301° |
| 2026-04-26 19:49 | 25.12534 | 55.59499 | 2600 ft | 149 kts | 301° |
| 2026-04-26 19:49 | 25.13131 | 55.58407 | 2459 ft | 149 kts | 301° |
| 2026-04-26 19:49 | 25.13722 | 55.57343 | 2190 ft | 148 kts | 301° |
| 2026-04-26 19:49 | 25.14291 | 55.56317 | 2011 ft | 147 kts | 301° |
| 2026-04-26 19:50 | 25.14846 | 55.55313 | 2000 ft | 148 kts | 301° |
| 2026-04-26 19:50 | 25.15396 | 55.54313 | 1994 ft | 148 kts | 301° |
| 2026-04-26 19:50 | 25.15949 | 55.53312 | 1991 ft | 148 kts | 301° |
| 2026-04-26 19:50 | 25.16496 | 55.52320 | 1991 ft | 148 kts | 301° |
| 2026-04-26 19:51 | 25.17036 | 55.51344 | 1989 ft | 148 kts | 301° |
| 2026-04-26 19:51 | 25.17572 | 55.50373 | 1984 ft | 148 kts | 301° |
| 2026-04-26 19:51 | 25.18107 | 55.49403 | 1969 ft | 148 kts | 301° |
| 2026-04-26 19:51 | 25.18644 | 55.48433 | 1803 ft | 147 kts | 301° |
| 2026-04-26 19:52 | 25.19173 | 55.47472 | 1622 ft | 147 kts | 301° |
| 2026-04-26 19:52 | 25.19709 | 55.46504 | 1434 ft | 146 kts | 301° |
| 2026-04-26 19:52 | 25.20240 | 55.45546 | 1250 ft | 146 kts | 300° |
| 2026-04-26 19:52 | 25.20770 | 55.44587 | 1067 ft | 145 kts | 301° |
| 2026-04-26 19:53 | 25.21291 | 55.43646 | 887 ft | 145 kts | 301° |
| 2026-04-26 19:53 | 25.21820 | 55.42694 | 700 ft | 145 kts | 300° |
| 2026-04-26 19:53 | 25.22342 | 55.41748 | 519 ft | 144 kts | 300° |
| 2026-04-26 19:53 | 25.22847 | 55.40792 | 335 ft | 143 kts | 300° |
| 2026-04-26 19:54 | 25.23369 | 55.39852 | 178 ft | 142 kts | 301° |
| 2026-04-26 19:54 | 25.23889 | 55.38924 | 86 ft | 141 kts | 300° |
| 2026-04-26 19:54 | 25.24360 | 55.38065 | 49 ft | 114 kts | 301° |
| 2026-04-26 19:54 | 25.24691 | 55.37504 | 48 ft | 61 kts | 300° |
| 2026-04-26 19:55 | 25.24787 | 55.37252 | 48 ft | 29 kts | 278° |
| 2026-04-26 19:55 | 25.24789 | 55.37080 | 48 ft | 13 kts | 269° |
| 2026-04-26 19:55 | 25.24791 | 55.36996 | 48 ft | 9 kts | 276° |
| 2026-04-26 19:55 | 25.24803 | 55.36932 | 48 ft | 7 kts | 289° |
| 2026-04-26 19:56 | 25.24822 | 55.36880 | 48 ft | 6 kts | 295° |
| 2026-04-26 19:56 | 25.24842 | 55.36834 | 48 ft | 6 kts | 295° |
| 2026-04-26 19:56 | 25.24858 | 55.36791 | 48 ft | 5 kts | 287° |
| 2026-04-26 19:56 | 25.24868 | 55.36751 | 48 ft | 5 kts | 284° |
| 2026-04-26 19:57 | 25.24876 | 55.36716 | 48 ft | 4 kts | 285° |
| 2026-04-26 19:57 | 25.24886 | 55.36684 | 48 ft | 4 kts | 293° |
| 2026-04-26 19:57 | 25.24898 | 55.36656 | 48 ft | 3 kts | 296° |
| 2026-04-26 19:57 | 25.24911 | 55.36629 | 48 ft | 3 kts | 299° |
| 2026-04-26 19:58 | 25.24934 | 55.36585 | 48 ft | 10 kts | 301° |
| 2026-04-26 19:58 | 25.24975 | 55.36512 | 48 ft | 11 kts | 301° |
| 2026-04-26 19:58 | 25.25018 | 55.36434 | 48 ft | 11 kts | 302° |
| 2026-04-26 19:58 | 25.25061 | 55.36356 | 48 ft | 11 kts | 302° |
| 2026-04-26 19:59 | 25.25103 | 55.36278 | 48 ft | 11 kts | 296° |
| 2026-04-26 19:59 | 25.25105 | 55.36201 | 48 ft | 8 kts | 239° |
| 2026-04-26 19:59 | 25.25059 | 55.36158 | 48 ft | 8 kts | 224° |
| 2026-04-26 19:59 | 25.25043 | 55.36129 | 48 ft | 4 kts | 246° |
| 2026-04-26 20:00 | 25.25025 | 55.36091 | 48 ft | 3 kts | 234° |
| 2026-04-26 20:00 | 25.25018 | 55.36084 | 48 ft | 0 kts | 216° |